AAR547 RKSI-LHBP
Flight info
| Callsign | AAR547 |
|---|---|
| Flight time | 11h 32m |
| Altitude | 38000 |
| Route | K0909S1160 NOPIK2Y NOPIK Y697 AGAVO A591 IKEKA W4 HCH W200 DOVIV W55 PAMRU W34 LADIX B339 ASILA A575 UPREK W28 LAGEB W66 NUKTI B215 KABDO W119 GOBOK A343 RULAD/K0898F380 M610 ARBOL Z621 ELAHA N147 OTBOR/N0488F380 A480 TIMGA B476 METKA L88 RASAM N199 LUSAL N319 ADEKI DCT BADIR DCT LAGAS DCT NOLGA UG261 TBN UM11 CRM UL746 ODERO DCT LUGEB DCT BUDOP DCT KEZAL KEZAL2T |
| Aircraft | A359/H-SDE2E3GHIJ3J4J5LM1ORWXY/LB1D1 |
Departure
| Time | 2026-05-04 06:36 |
|---|---|
| Airport | Incheon International Airport (RKSI) |
Arrival
| Time | 2026-05-04 18:09 |
|---|---|
| Airport | Budapest Liszt Ferenc International Airport (LHBP) |
| Time | Latitude | Longitude | Altitude | Speed | Heading |
|---|---|---|---|---|---|
| 2026-05-04 05:34 | 37.45261 | 126.45269 | 36 ft | 0 kts | 255° |
| 2026-05-04 06:25 | 37.45260 | 126.45374 | 34 ft | 0 kts | 342° |
| 2026-05-04 06:27 | 37.45271 | 126.45369 | 37 ft | 4 kts | 341° |
| 2026-05-04 06:28 | 37.45321 | 126.45346 | 38 ft | 10 kts | 340° |
| 2026-05-04 06:28 | 37.45389 | 126.45319 | 38 ft | 10 kts | 343° |
| 2026-05-04 06:28 | 37.45464 | 126.45291 | 38 ft | 12 kts | 343° |
| 2026-05-04 06:28 | 37.45517 | 126.45216 | 38 ft | 12 kts | 291° |
| 2026-05-04 06:29 | 37.45531 | 126.45114 | 38 ft | 12 kts | 270° |
| 2026-05-04 06:29 | 37.45499 | 126.45022 | 38 ft | 12 kts | 236° |
| 2026-05-04 06:29 | 37.45451 | 126.44937 | 38 ft | 12 kts | 231° |
| 2026-05-04 06:29 | 37.45403 | 126.44848 | 38 ft | 12 kts | 239° |
| 2026-05-04 06:30 | 37.45356 | 126.44758 | 38 ft | 13 kts | 234° |
| 2026-05-04 06:30 | 37.45303 | 126.44669 | 38 ft | 13 kts | 234° |
| 2026-05-04 06:30 | 37.45250 | 126.44576 | 38 ft | 13 kts | 234° |
| 2026-05-04 06:30 | 37.45196 | 126.44484 | 38 ft | 13 kts | 234° |
| 2026-05-04 06:31 | 37.45142 | 126.44389 | 38 ft | 13 kts | 234° |
| 2026-05-04 06:31 | 37.45088 | 126.44290 | 38 ft | 14 kts | 236° |
| 2026-05-04 06:31 | 37.45031 | 126.44185 | 38 ft | 15 kts | 235° |
| 2026-05-04 06:31 | 37.44971 | 126.44079 | 38 ft | 14 kts | 234° |
| 2026-05-04 06:32 | 37.44914 | 126.43993 | 38 ft | 11 kts | 216° |
| 2026-05-04 06:33 | 37.44609 | 126.44201 | 38 ft | 10 kts | 144° |
| 2026-05-04 06:34 | 37.44540 | 126.44262 | 38 ft | 13 kts | 145° |
| 2026-05-04 06:34 | 37.44478 | 126.44309 | 38 ft | 8 kts | 164° |
| 2026-05-04 06:34 | 37.44437 | 126.44302 | 38 ft | 4 kts | 207° |
| 2026-05-04 06:34 | 37.44417 | 126.44271 | 38 ft | 5 kts | 233° |
| 2026-05-04 06:35 | 37.44394 | 126.44232 | 38 ft | 6 kts | 234° |
| 2026-05-04 06:36 | 37.48034 | 126.40879 | 1154 ft | 189 kts | 315° |
| 2026-05-04 06:37 | 37.48902 | 126.39643 | 1854 ft | 192 kts | 303° |
| 2026-05-04 06:37 | 37.49571 | 126.38208 | 2444 ft | 187 kts | 298° |
| 2026-05-04 06:37 | 37.50155 | 126.36713 | 2742 ft | 199 kts | 291° |
| 2026-05-04 06:37 | 37.50434 | 126.34919 | 2960 ft | 219 kts | 277° |
| 2026-05-04 06:38 | 37.50519 | 126.32922 | 3266 ft | 235 kts | 274° |
| 2026-05-04 06:38 | 37.50558 | 126.30821 | 3752 ft | 243 kts | 274° |
| 2026-05-04 06:40 | 37.49438 | 126.15407 | 7791 ft | 279 kts | 242° |
| 2026-05-04 06:40 | 37.48368 | 126.13376 | 8341 ft | 283 kts | 241° |
| 2026-05-04 06:40 | 37.47249 | 126.11297 | 8943 ft | 286 kts | 240° |
| 2026-05-04 06:40 | 37.46136 | 126.09226 | 9531 ft | 289 kts | 240° |
| 2026-05-04 06:41 | 37.45006 | 126.07105 | 10090 ft | 292 kts | 241° |
| 2026-05-04 06:41 | 37.43860 | 126.04934 | 10397 ft | 304 kts | 241° |
| 2026-05-04 06:41 | 37.42677 | 126.02684 | 10634 ft | 318 kts | 240° |
| 2026-05-04 06:41 | 37.41463 | 126.00279 | 10847 ft | 330 kts | 245° |
| 2026-05-04 06:42 | 37.40738 | 125.97518 | 11060 ft | 334 kts | 266° |
| 2026-05-04 06:42 | 37.40605 | 125.94590 | 11286 ft | 344 kts | 272° |
| 2026-05-04 06:42 | 37.40593 | 125.91530 | 11505 ft | 354 kts | 273° |
| 2026-05-04 06:44 | 37.40383 | 125.68711 | 14193 ft | 383 kts | 272° |
| 2026-05-04 06:44 | 37.40339 | 125.65333 | 14579 ft | 385 kts | 272° |
| 2026-05-04 06:44 | 37.40297 | 125.61983 | 14971 ft | 386 kts | 272° |
| 2026-05-04 06:45 | 37.40252 | 125.58577 | 15370 ft | 388 kts | 272° |
| 2026-05-04 06:45 | 37.40204 | 125.55212 | 15766 ft | 390 kts | 272° |
| 2026-05-04 06:45 | 37.40154 | 125.51779 | 16163 ft | 392 kts | 272° |
| 2026-05-04 06:45 | 37.40103 | 125.48360 | 16556 ft | 394 kts | 272° |
| 2026-05-04 06:46 | 37.40051 | 125.44902 | 16950 ft | 396 kts | 272° |
| 2026-05-04 06:46 | 37.39997 | 125.41423 | 17328 ft | 398 kts | 272° |
| 2026-05-04 06:46 | 37.39944 | 125.37967 | 17705 ft | 400 kts | 272° |
| 2026-05-04 06:46 | 37.39888 | 125.34439 | 18079 ft | 402 kts | 272° |
| 2026-05-04 06:48 | 37.39465 | 125.09561 | 20515 ft | 410 kts | 271° |
| 2026-05-04 06:48 | 37.39402 | 125.06009 | 20840 ft | 411 kts | 271° |
| 2026-05-04 06:49 | 37.39337 | 125.02404 | 21189 ft | 412 kts | 271° |
| 2026-05-04 06:50 | 37.38846 | 124.76984 | 23523 ft | 420 kts | 271° |
| 2026-05-04 06:51 | 37.38770 | 124.73345 | 23807 ft | 421 kts | 271° |
| 2026-05-04 06:51 | 37.38690 | 124.69649 | 24080 ft | 422 kts | 271° |
| 2026-05-04 06:51 | 37.38609 | 124.65944 | 24368 ft | 423 kts | 271° |
| 2026-05-04 06:51 | 37.38527 | 124.62267 | 24647 ft | 424 kts | 271° |
| 2026-05-04 06:52 | 37.38444 | 124.58544 | 24924 ft | 425 kts | 271° |
| 2026-05-04 06:52 | 37.38361 | 124.54853 | 25202 ft | 426 kts | 271° |
| 2026-05-04 06:52 | 37.38276 | 124.51111 | 25475 ft | 427 kts | 270° |
| 2026-05-04 06:52 | 37.38153 | 124.47359 | 25751 ft | 429 kts | 268° |
| 2026-05-04 06:53 | 37.37718 | 124.43662 | 26026 ft | 433 kts | 261° |
| 2026-05-04 06:53 | 37.36822 | 124.40006 | 26300 ft | 439 kts | 251° |
| 2026-05-04 06:53 | 37.35477 | 124.36576 | 26586 ft | 443 kts | 245° |
| 2026-05-04 06:53 | 37.33904 | 124.33191 | 26878 ft | 446 kts | 243° |
| 2026-05-04 06:54 | 37.32266 | 124.29911 | 27159 ft | 448 kts | 242° |
| 2026-05-04 06:54 | 37.30564 | 124.26601 | 27439 ft | 449 kts | 241° |
| 2026-05-04 06:54 | 37.28866 | 124.23320 | 27708 ft | 450 kts | 241° |
| 2026-05-04 06:54 | 37.27174 | 124.20033 | 27982 ft | 451 kts | 242° |
| 2026-05-04 06:55 | 37.25464 | 124.16686 | 28261 ft | 452 kts | 242° |
| 2026-05-04 06:55 | 37.23783 | 124.13375 | 28531 ft | 454 kts | 242° |
| 2026-05-04 06:55 | 37.22068 | 124.10017 | 28782 ft | 456 kts | 241° |
| 2026-05-04 06:55 | 37.20328 | 124.06721 | 29045 ft | 457 kts | 240° |
| 2026-05-04 06:56 | 37.18535 | 124.03381 | 29275 ft | 459 kts | 240° |
| 2026-05-04 06:57 | 37.06273 | 123.79868 | 31252 ft | 458 kts | 241° |
| 2026-05-04 06:58 | 37.04561 | 123.76549 | 31550 ft | 457 kts | 241° |
| 2026-05-04 06:58 | 37.02819 | 123.73179 | 31850 ft | 457 kts | 241° |
| 2026-05-04 06:58 | 37.01105 | 123.69873 | 32132 ft | 456 kts | 241° |
| 2026-05-04 06:58 | 36.99383 | 123.66555 | 32414 ft | 455 kts | 240° |
| 2026-05-04 06:59 | 36.97652 | 123.63226 | 32717 ft | 454 kts | 240° |
| 2026-05-04 06:59 | 36.95931 | 123.59917 | 33000 ft | 453 kts | 240° |
| 2026-05-04 06:59 | 36.94207 | 123.56607 | 33286 ft | 452 kts | 240° |
| 2026-05-04 06:59 | 36.92500 | 123.53331 | 33578 ft | 451 kts | 240° |
| 2026-05-04 07:01 | 36.85160 | 123.28598 | 35154 ft | 438 kts | 276° |
| 2026-05-04 07:01 | 36.85663 | 123.24883 | 35336 ft | 438 kts | 283° |
| 2026-05-04 07:02 | 36.86464 | 123.21181 | 35546 ft | 438 kts | 285° |
| 2026-05-04 07:02 | 36.87334 | 123.17570 | 35737 ft | 438 kts | 286° |
| 2026-05-04 07:02 | 36.88248 | 123.13924 | 35921 ft | 438 kts | 286° |
| 2026-05-04 07:02 | 36.89156 | 123.10318 | 36102 ft | 438 kts | 286° |
| 2026-05-04 07:03 | 36.90065 | 123.06673 | 36288 ft | 437 kts | 286° |
| 2026-05-04 07:03 | 36.90951 | 123.03067 | 36460 ft | 438 kts | 285° |
| 2026-05-04 07:03 | 36.91837 | 122.99414 | 36628 ft | 437 kts | 285° |
| 2026-05-04 07:03 | 36.92703 | 122.95810 | 36814 ft | 437 kts | 285° |
| 2026-05-04 07:04 | 36.93581 | 122.92138 | 36983 ft | 437 kts | 285° |
| 2026-05-04 07:04 | 36.94440 | 122.88533 | 37150 ft | 437 kts | 285° |
| 2026-05-04 07:04 | 36.95301 | 122.84913 | 37310 ft | 436 kts | 285° |
| 2026-05-04 07:04 | 36.96168 | 122.81263 | 37465 ft | 436 kts | 285° |
| 2026-05-04 07:05 | 36.97036 | 122.77609 | 37629 ft | 436 kts | 285° |
| 2026-05-04 07:05 | 36.97890 | 122.74006 | 37771 ft | 436 kts | 285° |
| 2026-05-04 07:05 | 36.98757 | 122.70347 | 37917 ft | 436 kts | 285° |
| 2026-05-04 07:05 | 36.99611 | 122.66736 | 38003 ft | 437 kts | 285° |
| 2026-05-04 07:06 | 37.01920 | 122.56941 | 38054 ft | 442 kts | 285° |
| 2026-05-04 07:07 | 37.03653 | 122.49570 | 38055 ft | 442 kts | 285° |
| 2026-05-04 07:08 | 37.13979 | 122.26373 | 38048 ft | 453 kts | 313° |
| 2026-05-04 07:09 | 37.16206 | 122.23564 | 38047 ft | 451 kts | 308° |
| 2026-05-04 07:09 | 37.19657 | 122.17107 | 38043 ft | 444 kts | 292° |
| 2026-05-04 07:10 | 37.21825 | 122.09927 | 38045 ft | 443 kts | 287° |
| 2026-05-04 07:12 | 37.29325 | 121.80379 | 38036 ft | 444 kts | 287° |
| 2026-05-04 07:12 | 37.31218 | 121.72999 | 38033 ft | 445 kts | 287° |
| 2026-05-04 07:13 | 37.33105 | 121.65614 | 38029 ft | 445 kts | 287° |
| 2026-05-04 07:13 | 37.34985 | 121.58232 | 38033 ft | 445 kts | 287° |
| 2026-05-04 07:14 | 37.39683 | 121.39685 | 38030 ft | 446 kts | 287° |
| 2026-05-04 07:15 | 37.41554 | 121.32257 | 38029 ft | 446 kts | 287° |
| 2026-05-04 07:15 | 37.43426 | 121.24809 | 38025 ft | 446 kts | 287° |
| 2026-05-04 07:16 | 37.45288 | 121.17375 | 38023 ft | 447 kts | 287° |
| 2026-05-04 07:16 | 37.47439 | 121.10020 | 38024 ft | 448 kts | 291° |
| 2026-05-04 07:17 | 37.49857 | 121.02788 | 38019 ft | 448 kts | 291° |
| 2026-05-04 07:17 | 37.52254 | 120.95540 | 38020 ft | 448 kts | 291° |
| 2026-05-04 07:18 | 37.54592 | 120.88250 | 38019 ft | 448 kts | 290° |
| 2026-05-04 07:18 | 37.56887 | 120.80988 | 38017 ft | 448 kts | 290° |
| 2026-05-04 07:19 | 37.59186 | 120.73686 | 38021 ft | 449 kts | 291° |
| 2026-05-04 07:19 | 37.61566 | 120.66392 | 38019 ft | 449 kts | 291° |
| 2026-05-04 07:20 | 37.63978 | 120.59117 | 38020 ft | 449 kts | 291° |
| 2026-05-04 07:20 | 37.66672 | 120.52009 | 38019 ft | 450 kts | 297° |
| 2026-05-04 07:22 | 37.79164 | 120.24523 | 38021 ft | 452 kts | 298° |
| 2026-05-04 07:23 | 37.82271 | 120.17661 | 38017 ft | 452 kts | 298° |
| 2026-05-04 07:23 | 37.85395 | 120.10747 | 38015 ft | 452 kts | 298° |
| 2026-05-04 07:24 | 37.88509 | 120.03840 | 38011 ft | 452 kts | 298° |
| 2026-05-04 07:24 | 37.91633 | 119.96898 | 38010 ft | 452 kts | 298° |
| 2026-05-04 07:26 | 38.04017 | 119.69227 | 38003 ft | 452 kts | 298° |
| 2026-05-04 07:27 | 38.07112 | 119.62276 | 38000 ft | 452 kts | 298° |
| 2026-05-04 07:27 | 38.10192 | 119.55331 | 37997 ft | 452 kts | 298° |
| 2026-05-04 07:28 | 38.12825 | 119.48058 | 37995 ft | 451 kts | 292° |
| 2026-05-04 07:28 | 38.15242 | 119.40714 | 37994 ft | 451 kts | 292° |
| 2026-05-04 07:29 | 38.17619 | 119.33353 | 37989 ft | 451 kts | 292° |
| 2026-05-04 07:29 | 38.20004 | 119.25964 | 38084 ft | 453 kts | 292° |
| 2026-05-04 07:30 | 38.22387 | 119.18589 | 38084 ft | 451 kts | 292° |
| 2026-05-04 07:30 | 38.24769 | 119.11211 | 38084 ft | 451 kts | 292° |
| 2026-05-04 07:31 | 38.27153 | 119.03807 | 38080 ft | 451 kts | 292° |
| 2026-05-04 07:33 | 38.36603 | 118.74269 | 38067 ft | 451 kts | 292° |
| 2026-05-04 07:33 | 38.38966 | 118.66879 | 38070 ft | 451 kts | 292° |
| 2026-05-04 07:34 | 38.41333 | 118.59457 | 38067 ft | 451 kts | 292° |
| 2026-05-04 07:34 | 38.43691 | 118.52042 | 38063 ft | 451 kts | 292° |
| 2026-05-04 07:35 | 38.46042 | 118.44631 | 38061 ft | 451 kts | 292° |
| 2026-05-04 07:35 | 38.48381 | 118.37239 | 38060 ft | 451 kts | 292° |
| 2026-05-04 07:36 | 38.50719 | 118.29821 | 38054 ft | 451 kts | 292° |
| 2026-05-04 07:38 | 38.60951 | 118.00710 | 38049 ft | 450 kts | 309° |
| 2026-05-04 07:38 | 38.65160 | 117.94724 | 38042 ft | 451 kts | 313° |
| 2026-05-04 07:39 | 38.69497 | 117.88988 | 38039 ft | 450 kts | 313° |
| 2026-05-04 07:39 | 38.73863 | 117.83239 | 38037 ft | 450 kts | 313° |
| 2026-05-04 07:40 | 38.78206 | 117.77455 | 38035 ft | 450 kts | 313° |
| 2026-05-04 07:40 | 38.82523 | 117.71661 | 38034 ft | 450 kts | 313° |
| 2026-05-04 07:41 | 38.86838 | 117.65850 | 38030 ft | 450 kts | 313° |
| 2026-05-04 07:41 | 38.91148 | 117.60037 | 38022 ft | 450 kts | 313° |
| 2026-05-04 07:42 | 38.95458 | 117.54217 | 38017 ft | 449 kts | 313° |
| 2026-05-04 07:42 | 38.99765 | 117.48390 | 38013 ft | 449 kts | 313° |
| 2026-05-04 07:43 | 39.04039 | 117.42504 | 38013 ft | 449 kts | 310° |
| 2026-05-04 07:43 | 39.07413 | 117.35763 | 38007 ft | 450 kts | 295° |
| 2026-05-04 07:44 | 39.09212 | 117.28035 | 38007 ft | 453 kts | 283° |
| 2026-05-04 07:44 | 39.10304 | 117.20080 | 38007 ft | 455 kts | 281° |
| 2026-05-04 07:45 | 39.11461 | 117.12090 | 38006 ft | 453 kts | 288° |
| 2026-05-04 07:45 | 39.13958 | 117.04713 | 38005 ft | 449 kts | 303° |
| 2026-05-04 07:46 | 39.18053 | 116.98689 | 38009 ft | 448 kts | 320° |
| 2026-05-04 07:46 | 39.23399 | 116.94583 | 38009 ft | 451 kts | 336° |
| 2026-05-04 07:47 | 39.29523 | 116.92764 | 37996 ft | 457 kts | 353° |
| 2026-05-04 07:49 | 39.54866 | 116.90691 | 37991 ft | 456 kts | 348° |
| 2026-05-04 07:49 | 39.61126 | 116.89361 | 37989 ft | 456 kts | 348° |
| 2026-05-04 07:50 | 39.67375 | 116.88051 | 37983 ft | 456 kts | 348° |
| 2026-05-04 07:50 | 39.73668 | 116.86745 | 37979 ft | 456 kts | 348° |
| 2026-05-04 07:51 | 39.79947 | 116.85445 | 37979 ft | 456 kts | 348° |
| 2026-05-04 07:51 | 39.86208 | 116.84184 | 37974 ft | 456 kts | 349° |
| 2026-05-04 07:52 | 39.92447 | 116.82952 | 37977 ft | 456 kts | 349° |
| 2026-05-04 07:52 | 39.98710 | 116.81710 | 37979 ft | 455 kts | 349° |
| 2026-05-04 07:54 | 40.23736 | 116.76700 | 37974 ft | 454 kts | 349° |
| 2026-05-04 07:55 | 40.29967 | 116.75446 | 37969 ft | 454 kts | 349° |
| 2026-05-04 07:55 | 40.35111 | 116.73940 | 37969 ft | 452 kts | 342° |
| 2026-05-04 07:56 | 40.41140 | 116.71605 | 37963 ft | 451 kts | 341° |
| 2026-05-04 07:56 | 40.47085 | 116.69184 | 37959 ft | 450 kts | 341° |
| 2026-05-04 07:57 | 40.53061 | 116.66737 | 37958 ft | 450 kts | 341° |
| 2026-05-04 07:57 | 40.59042 | 116.64301 | 37956 ft | 449 kts | 341° |
| 2026-05-04 07:58 | 40.65008 | 116.61876 | 37952 ft | 449 kts | 341° |
| 2026-05-04 07:58 | 40.70965 | 116.59451 | 37948 ft | 448 kts | 341° |
| 2026-05-04 07:59 | 40.76941 | 116.57164 | 37944 ft | 449 kts | 346° |
| 2026-05-04 07:59 | 40.83156 | 116.56124 | 37939 ft | 451 kts | 352° |
| 2026-05-04 08:00 | 40.89409 | 116.55511 | 37933 ft | 451 kts | 353° |
| 2026-05-04 08:02 | 41.14450 | 116.53253 | 37918 ft | 450 kts | 353° |
| 2026-05-04 08:02 | 41.20672 | 116.52544 | 37909 ft | 449 kts | 348° |
| 2026-05-04 08:03 | 41.26618 | 116.50237 | 37902 ft | 444 kts | 334° |
| 2026-05-04 08:03 | 41.32042 | 116.46330 | 37890 ft | 444 kts | 329° |
| 2026-05-04 08:04 | 41.37345 | 116.42101 | 37891 ft | 444 kts | 328° |
| 2026-05-04 08:04 | 41.42626 | 116.37840 | 37886 ft | 444 kts | 328° |
| 2026-05-04 08:05 | 41.47919 | 116.33608 | 37882 ft | 444 kts | 328° |
| 2026-05-04 08:05 | 41.53224 | 116.29389 | 37877 ft | 444 kts | 328° |
| 2026-05-04 08:06 | 41.58536 | 116.25161 | 37872 ft | 444 kts | 328° |
| 2026-05-04 08:06 | 41.63804 | 116.20959 | 37863 ft | 444 kts | 328° |
| 2026-05-04 08:08 | 41.84990 | 116.03974 | 37847 ft | 443 kts | 328° |
| 2026-05-04 08:10 | 42.01818 | 115.80867 | 37816 ft | 444 kts | 300° |
| 2026-05-04 08:11 | 42.03277 | 115.77183 | 37815 ft | 444 kts | 299° |
| 2026-05-04 08:11 | 42.07621 | 115.66229 | 37805 ft | 444 kts | 300° |
| 2026-05-04 08:12 | 42.10553 | 115.58924 | 37800 ft | 444 kts | 300° |
| 2026-05-04 08:12 | 42.13493 | 115.51611 | 37794 ft | 444 kts | 300° |
| 2026-05-04 08:13 | 42.16445 | 115.44256 | 37784 ft | 444 kts | 300° |
| 2026-05-04 08:13 | 42.19367 | 115.36951 | 37775 ft | 443 kts | 300° |
| 2026-05-04 08:14 | 42.21985 | 115.29422 | 37771 ft | 446 kts | 291° |
| 2026-05-04 08:16 | 42.21516 | 114.95641 | 37753 ft | 457 kts | 268° |
| 2026-05-04 08:16 | 42.20889 | 114.87136 | 37753 ft | 456 kts | 268° |
| 2026-05-04 08:17 | 42.20276 | 114.78605 | 37751 ft | 457 kts | 268° |
| 2026-05-04 08:17 | 42.19663 | 114.70087 | 37749 ft | 456 kts | 268° |
| 2026-05-04 08:19 | 42.17136 | 114.36050 | 37743 ft | 457 kts | 268° |
| 2026-05-04 08:20 | 42.16488 | 114.27542 | 37742 ft | 457 kts | 268° |
| 2026-05-04 08:20 | 42.15833 | 114.19021 | 37743 ft | 457 kts | 268° |
| 2026-05-04 08:21 | 42.15170 | 114.10502 | 37742 ft | 457 kts | 268° |
| 2026-05-04 08:21 | 42.14500 | 114.01968 | 37741 ft | 457 kts | 268° |
| 2026-05-04 08:22 | 42.13826 | 113.93447 | 37743 ft | 457 kts | 268° |
| 2026-05-04 08:24 | 42.11063 | 113.59370 | 37754 ft | 458 kts | 268° |
| 2026-05-04 08:24 | 42.10316 | 113.50849 | 37755 ft | 460 kts | 265° |
| 2026-05-04 08:25 | 42.08937 | 113.42426 | 37764 ft | 463 kts | 261° |
| 2026-05-04 08:25 | 42.07358 | 113.33987 | 37776 ft | 464 kts | 260° |
| 2026-05-04 08:27 | 42.00938 | 113.00389 | 37785 ft | 464 kts | 260° |
| 2026-05-04 08:28 | 41.99325 | 112.91971 | 37792 ft | 464 kts | 260° |
| 2026-05-04 08:28 | 41.97705 | 112.83562 | 37795 ft | 464 kts | 260° |
| 2026-05-04 08:29 | 41.96090 | 112.75218 | 37802 ft | 464 kts | 260° |
| 2026-05-04 08:31 | 41.98548 | 112.42142 | 37812 ft | 448 kts | 288° |
| 2026-05-04 08:33 | 42.05105 | 112.09833 | 37812 ft | 448 kts | 288° |
| 2026-05-04 08:35 | 42.10696 | 111.81581 | 37699 ft | 448 kts | 288° |
| 2026-05-04 08:35 | 42.11497 | 111.77502 | 37702 ft | 448 kts | 288° |
| 2026-05-04 08:35 | 42.13086 | 111.69389 | 37694 ft | 448 kts | 287° |
| 2026-05-04 08:37 | 42.18589 | 111.41012 | 37691 ft | 448 kts | 287° |
| 2026-05-04 08:38 | 42.19986 | 111.32816 | 37688 ft | 451 kts | 281° |
| 2026-05-04 08:38 | 42.20027 | 111.24317 | 37694 ft | 458 kts | 268° |
| 2026-05-04 08:40 | 42.16338 | 110.90276 | 37698 ft | 459 kts | 265° |
| 2026-05-04 08:41 | 42.15406 | 110.81770 | 37699 ft | 459 kts | 265° |
| 2026-05-04 08:41 | 42.14472 | 110.73282 | 37698 ft | 459 kts | 265° |
| 2026-05-04 08:42 | 42.13525 | 110.64754 | 37703 ft | 459 kts | 265° |
| 2026-05-04 08:42 | 42.12576 | 110.56265 | 37703 ft | 459 kts | 265° |
| 2026-05-04 08:43 | 42.11774 | 110.49146 | 37701 ft | 459 kts | 265° |
| 2026-05-04 08:43 | 42.10656 | 110.39288 | 37701 ft | 459 kts | 265° |
| 2026-05-04 08:44 | 42.09844 | 110.32174 | 37707 ft | 459 kts | 265° |
| 2026-05-04 08:46 | 42.05904 | 109.98223 | 37706 ft | 459 kts | 264° |
| 2026-05-04 08:46 | 42.04903 | 109.89734 | 37709 ft | 459 kts | 264° |
| 2026-05-04 08:47 | 42.03896 | 109.81251 | 37707 ft | 459 kts | 264° |
| 2026-05-04 08:47 | 42.02883 | 109.72769 | 37708 ft | 460 kts | 264° |
| 2026-05-04 08:48 | 42.01862 | 109.64287 | 37708 ft | 460 kts | 264° |
| 2026-05-04 08:48 | 42.00836 | 109.55807 | 37712 ft | 460 kts | 264° |
| 2026-05-04 08:49 | 41.99804 | 109.47339 | 37711 ft | 460 kts | 264° |
| 2026-05-04 08:50 | 41.96141 | 109.17701 | 37710 ft | 460 kts | 264° |
| 2026-05-04 08:51 | 41.95073 | 109.09179 | 37706 ft | 460 kts | 264° |
| 2026-05-04 08:51 | 41.94009 | 109.00747 | 37707 ft | 460 kts | 264° |
| 2026-05-04 08:52 | 41.92928 | 108.92224 | 37701 ft | 460 kts | 264° |
| 2026-05-04 08:52 | 41.91850 | 108.83775 | 37698 ft | 460 kts | 264° |
| 2026-05-04 08:54 | 41.87464 | 108.49946 | 37694 ft | 460 kts | 263° |
| 2026-05-04 08:55 | 41.86352 | 108.41487 | 37695 ft | 460 kts | 263° |
| 2026-05-04 08:55 | 41.85239 | 108.33073 | 37701 ft | 460 kts | 263° |
| 2026-05-04 09:01 | 41.73117 | 107.44465 | 37700 ft | 461 kts | 263° |
| 2026-05-04 09:01 | 41.71923 | 107.36023 | 37700 ft | 461 kts | 263° |
| 2026-05-04 09:02 | 41.70727 | 107.27602 | 37692 ft | 461 kts | 263° |
| 2026-05-04 09:02 | 41.69524 | 107.19186 | 37701 ft | 461 kts | 263° |
| 2026-05-04 09:03 | 41.68316 | 107.10781 | 37700 ft | 461 kts | 263° |
| 2026-05-04 09:03 | 41.67100 | 107.02360 | 37695 ft | 461 kts | 262° |
| 2026-05-04 09:04 | 41.65878 | 106.93942 | 37694 ft | 461 kts | 262° |
| 2026-05-04 09:04 | 41.64650 | 106.85534 | 37697 ft | 461 kts | 262° |
| 2026-05-04 09:05 | 41.63417 | 106.77130 | 37697 ft | 461 kts | 262° |
| 2026-05-04 09:05 | 41.62176 | 106.68725 | 37698 ft | 461 kts | 262° |
| 2026-05-04 09:06 | 41.60933 | 106.60343 | 37694 ft | 462 kts | 262° |
| 2026-05-04 09:08 | 41.55879 | 106.26727 | 37683 ft | 462 kts | 262° |
| 2026-05-04 09:08 | 41.54599 | 106.18321 | 37679 ft | 463 kts | 262° |
| 2026-05-04 09:09 | 41.53167 | 106.09937 | 37672 ft | 466 kts | 256° |
| 2026-05-04 09:09 | 41.50932 | 106.01809 | 37671 ft | 468 kts | 252° |
| 2026-05-04 09:10 | 41.48486 | 105.93699 | 37668 ft | 469 kts | 252° |
| 2026-05-04 09:10 | 41.46018 | 105.85647 | 37664 ft | 469 kts | 252° |
| 2026-05-04 09:11 | 41.43569 | 105.77626 | 37654 ft | 470 kts | 252° |
| 2026-05-04 09:11 | 41.41109 | 105.69546 | 37654 ft | 470 kts | 252° |
| 2026-05-04 09:12 | 41.38650 | 105.61480 | 37652 ft | 470 kts | 252° |
| 2026-05-04 09:14 | 41.28635 | 105.29291 | 37657 ft | 471 kts | 251° |
| 2026-05-04 09:14 | 41.26126 | 105.21285 | 37660 ft | 471 kts | 251° |
| 2026-05-04 09:15 | 41.23602 | 105.13255 | 37652 ft | 471 kts | 251° |
| 2026-05-04 09:15 | 41.21068 | 105.05220 | 37649 ft | 472 kts | 251° |
| 2026-05-04 09:17 | 41.09600 | 104.69146 | 37650 ft | 472 kts | 251° |
| 2026-05-04 09:18 | 41.07104 | 104.61067 | 37647 ft | 471 kts | 252° |
| 2026-05-04 09:18 | 41.04689 | 104.53055 | 37649 ft | 471 kts | 252° |
| 2026-05-04 09:19 | 41.02228 | 104.44946 | 37653 ft | 472 kts | 252° |
| 2026-05-04 09:19 | 41.00136 | 104.36813 | 37654 ft | 466 kts | 262° |
| 2026-05-04 09:20 | 40.99696 | 104.28387 | 37655 ft | 456 kts | 278° |
| 2026-05-04 09:20 | 41.01150 | 104.20313 | 37654 ft | 450 kts | 291° |
| 2026-05-04 09:21 | 41.03358 | 104.12580 | 37652 ft | 450 kts | 294° |
| 2026-05-04 09:21 | 41.05661 | 104.04860 | 37653 ft | 449 kts | 293° |
| 2026-05-04 09:22 | 41.07920 | 103.97132 | 37649 ft | 449 kts | 293° |
| 2026-05-04 09:22 | 41.10140 | 103.89392 | 37646 ft | 449 kts | 292° |
| 2026-05-04 09:23 | 41.12345 | 103.81638 | 37642 ft | 449 kts | 292° |
| 2026-05-04 09:23 | 41.14540 | 103.73899 | 37641 ft | 449 kts | 292° |
| 2026-05-04 09:25 | 41.23271 | 103.42914 | 37636 ft | 448 kts | 292° |
| 2026-05-04 09:26 | 41.25435 | 103.35176 | 37637 ft | 448 kts | 292° |
| 2026-05-04 09:26 | 41.27591 | 103.27442 | 37639 ft | 447 kts | 292° |
| 2026-05-04 09:27 | 41.29759 | 103.19642 | 37630 ft | 447 kts | 292° |
| 2026-05-04 09:27 | 41.31897 | 103.11925 | 37630 ft | 447 kts | 292° |
| 2026-05-04 09:28 | 41.34045 | 103.04147 | 37628 ft | 447 kts | 292° |
| 2026-05-04 09:28 | 41.36197 | 102.96357 | 37632 ft | 447 kts | 292° |
| 2026-05-04 09:29 | 41.38419 | 102.88628 | 37631 ft | 446 kts | 293° |
| 2026-05-04 09:29 | 41.40661 | 102.80927 | 37633 ft | 447 kts | 293° |
| 2026-05-04 09:30 | 41.42890 | 102.73211 | 37630 ft | 447 kts | 292° |
| 2026-05-04 09:30 | 41.45112 | 102.65492 | 37632 ft | 446 kts | 292° |
| 2026-05-04 09:31 | 41.47335 | 102.57760 | 37633 ft | 446 kts | 292° |
| 2026-05-04 09:31 | 41.49549 | 102.50035 | 37626 ft | 446 kts | 292° |
| 2026-05-04 09:32 | 41.51748 | 102.42339 | 37628 ft | 446 kts | 292° |
| 2026-05-04 09:34 | 41.60150 | 102.12729 | 37638 ft | 445 kts | 292° |
| 2026-05-04 09:34 | 41.62328 | 102.04993 | 37620 ft | 444 kts | 292° |
| 2026-05-04 09:35 | 41.64494 | 101.97280 | 37620 ft | 444 kts | 292° |
| 2026-05-04 09:35 | 41.66665 | 101.89525 | 37630 ft | 443 kts | 292° |
| 2026-05-04 09:37 | 41.75239 | 101.58658 | 37619 ft | 442 kts | 291° |
| 2026-05-04 09:38 | 41.77366 | 101.50942 | 37617 ft | 442 kts | 291° |
| 2026-05-04 09:38 | 41.79484 | 101.43236 | 37612 ft | 441 kts | 291° |
| 2026-05-04 09:39 | 41.81600 | 101.35514 | 37607 ft | 441 kts | 291° |
| 2026-05-04 09:39 | 41.83707 | 101.27793 | 37607 ft | 441 kts | 291° |
| 2026-05-04 09:40 | 41.85104 | 101.19760 | 37603 ft | 445 kts | 278° |
| 2026-05-04 09:40 | 41.85482 | 101.11478 | 37606 ft | 446 kts | 275° |
| 2026-05-04 09:42 | 41.86164 | 100.78261 | 37601 ft | 445 kts | 275° |
| 2026-05-04 09:43 | 41.86344 | 100.69977 | 37597 ft | 445 kts | 274° |
| 2026-05-04 09:43 | 41.86517 | 100.61664 | 37599 ft | 445 kts | 274° |
| 2026-05-04 09:44 | 41.86683 | 100.53368 | 37601 ft | 444 kts | 274° |
| 2026-05-04 09:46 | 41.87285 | 100.20297 | 37594 ft | 443 kts | 274° |
| 2026-05-04 09:46 | 41.87420 | 100.12028 | 37593 ft | 443 kts | 274° |
| 2026-05-04 09:47 | 41.87550 | 100.03748 | 37593 ft | 443 kts | 274° |
| 2026-05-04 09:49 | 41.88007 | 99.70816 | 37589 ft | 440 kts | 274° |
| 2026-05-04 09:51 | 41.88328 | 99.42172 | 37592 ft | 438 kts | 274° |
| 2026-05-04 09:51 | 41.88407 | 99.34015 | 37590 ft | 438 kts | 274° |
| 2026-05-04 09:52 | 41.88480 | 99.25862 | 37594 ft | 437 kts | 274° |
| 2026-05-04 09:52 | 41.88546 | 99.17724 | 37594 ft | 437 kts | 274° |
| 2026-05-04 09:53 | 41.88607 | 99.09587 | 37596 ft | 437 kts | 274° |
| 2026-05-04 09:53 | 41.88662 | 99.01445 | 37598 ft | 436 kts | 274° |
| 2026-05-04 09:54 | 41.88712 | 98.93265 | 37600 ft | 436 kts | 274° |
| 2026-05-04 09:54 | 41.88755 | 98.85131 | 37597 ft | 436 kts | 274° |
| 2026-05-04 09:55 | 41.88793 | 98.77008 | 37600 ft | 436 kts | 274° |
| 2026-05-04 09:55 | 41.88826 | 98.68876 | 37605 ft | 435 kts | 274° |
| 2026-05-04 09:56 | 41.88852 | 98.60778 | 37605 ft | 435 kts | 274° |
| 2026-05-04 09:56 | 41.88873 | 98.52683 | 37611 ft | 434 kts | 274° |
| 2026-05-04 09:57 | 41.88888 | 98.44598 | 37613 ft | 433 kts | 274° |
| 2026-05-04 09:57 | 41.88897 | 98.36526 | 37612 ft | 433 kts | 274° |
| 2026-05-04 09:58 | 41.88901 | 98.28450 | 37610 ft | 433 kts | 274° |
| 2026-05-04 09:58 | 41.88900 | 98.20383 | 37617 ft | 434 kts | 274° |
| 2026-05-04 10:00 | 41.88835 | 97.87936 | 37610 ft | 435 kts | 273° |
| 2026-05-04 10:04 | 41.88503 | 97.31252 | 37623 ft | 435 kts | 273° |
| 2026-05-04 10:04 | 41.88431 | 97.23119 | 37633 ft | 435 kts | 273° |
| 2026-05-04 10:05 | 41.88355 | 97.14977 | 37635 ft | 436 kts | 273° |
| 2026-05-04 10:05 | 41.88275 | 97.06885 | 37634 ft | 436 kts | 272° |
| 2026-05-04 10:06 | 41.88187 | 96.98713 | 37640 ft | 436 kts | 272° |
| 2026-05-04 10:06 | 41.88094 | 96.90589 | 37642 ft | 437 kts | 272° |
| 2026-05-04 10:08 | 41.87719 | 96.62050 | 37658 ft | 437 kts | 272° |
| 2026-05-04 10:08 | 41.87600 | 96.53916 | 37659 ft | 436 kts | 272° |
| 2026-05-04 10:09 | 41.87475 | 96.45799 | 37671 ft | 436 kts | 272° |
| 2026-05-04 10:09 | 41.87344 | 96.37688 | 37671 ft | 435 kts | 272° |
| 2026-05-04 10:10 | 41.87208 | 96.29576 | 37677 ft | 435 kts | 272° |
| 2026-05-04 10:10 | 41.87072 | 96.21426 | 37678 ft | 434 kts | 272° |
| 2026-05-04 10:11 | 41.87022 | 96.13376 | 37676 ft | 434 kts | 273° |
| 2026-05-04 10:11 | 41.86999 | 96.05271 | 37682 ft | 434 kts | 273° |
| 2026-05-04 10:12 | 41.86960 | 95.97179 | 37691 ft | 434 kts | 272° |
| 2026-05-04 10:12 | 41.86904 | 95.89092 | 37680 ft | 434 kts | 272° |
| 2026-05-04 10:13 | 41.86839 | 95.80966 | 37687 ft | 434 kts | 272° |
| 2026-05-04 10:13 | 41.86767 | 95.72925 | 37686 ft | 434 kts | 272° |
| 2026-05-04 10:14 | 41.86691 | 95.64818 | 37681 ft | 435 kts | 272° |
| 2026-05-04 10:16 | 41.86334 | 95.32358 | 37667 ft | 436 kts | 272° |
| 2026-05-04 10:16 | 41.86834 | 95.24273 | 37656 ft | 432 kts | 283° |
| 2026-05-04 10:17 | 41.88885 | 95.16740 | 37654 ft | 432 kts | 298° |
| 2026-05-04 10:19 | 42.02454 | 94.95082 | 37627 ft | 435 kts | 309° |
| 2026-05-04 10:19 | 42.04443 | 94.92055 | 37635 ft | 435 kts | 309° |
| 2026-05-04 10:19 | 42.08433 | 94.85936 | 37616 ft | 435 kts | 309° |
| 2026-05-04 10:20 | 42.12415 | 94.79803 | 37616 ft | 435 kts | 309° |
| 2026-05-04 10:20 | 42.16400 | 94.73653 | 37612 ft | 435 kts | 309° |
| 2026-05-04 10:21 | 42.20389 | 94.67485 | 37607 ft | 436 kts | 309° |
| 2026-05-04 10:21 | 42.23702 | 94.62355 | 37605 ft | 436 kts | 309° |
| 2026-05-04 10:22 | 42.29658 | 94.53111 | 37601 ft | 436 kts | 309° |
| 2026-05-04 10:23 | 42.33632 | 94.46925 | 37598 ft | 436 kts | 308° |
| 2026-05-04 10:25 | 42.49542 | 94.22033 | 37601 ft | 437 kts | 308° |
| 2026-05-04 10:25 | 42.53485 | 94.15829 | 37605 ft | 438 kts | 308° |
| 2026-05-04 10:26 | 42.57455 | 94.09573 | 37608 ft | 438 kts | 308° |
| 2026-05-04 10:26 | 42.61428 | 94.03296 | 37604 ft | 438 kts | 308° |
| 2026-05-04 10:27 | 42.65400 | 93.97008 | 37612 ft | 439 kts | 308° |
| 2026-05-04 10:27 | 42.69381 | 93.90693 | 37609 ft | 439 kts | 308° |
| 2026-05-04 10:28 | 42.73345 | 93.84392 | 37605 ft | 439 kts | 308° |
| 2026-05-04 10:28 | 42.77290 | 93.78133 | 37602 ft | 429 kts | 305° |
| 2026-05-04 10:29 | 42.81118 | 93.72042 | 37611 ft | 418 kts | 304° |
| 2026-05-04 10:29 | 42.84366 | 93.65606 | 37611 ft | 410 kts | 294° |
| 2026-05-04 10:30 | 42.86517 | 93.58455 | 37603 ft | 407 kts | 287° |
| 2026-05-04 10:30 | 42.88341 | 93.51147 | 37603 ft | 407 kts | 286° |
| 2026-05-04 10:31 | 42.90125 | 93.43803 | 37601 ft | 407 kts | 286° |
| 2026-05-04 10:32 | 42.96452 | 93.18158 | 37606 ft | 408 kts | 285° |
| 2026-05-04 10:33 | 42.98257 | 93.10817 | 37607 ft | 408 kts | 285° |
| 2026-05-04 10:33 | 43.00055 | 93.03482 | 37611 ft | 408 kts | 285° |
| 2026-05-04 10:34 | 43.01859 | 92.96099 | 37611 ft | 408 kts | 285° |
| 2026-05-04 10:34 | 43.03649 | 92.88748 | 37616 ft | 409 kts | 285° |
| 2026-05-04 10:35 | 43.05436 | 92.81381 | 37613 ft | 409 kts | 285° |
| 2026-05-04 10:35 | 43.07220 | 92.74006 | 37618 ft | 410 kts | 285° |
| 2026-05-04 10:36 | 43.09016 | 92.66560 | 37617 ft | 410 kts | 285° |
| 2026-05-04 10:36 | 43.10800 | 92.59137 | 37641 ft | 411 kts | 285° |
| 2026-05-04 10:37 | 43.12580 | 92.51707 | 37629 ft | 412 kts | 284° |
| 2026-05-04 10:37 | 43.14349 | 92.44302 | 37645 ft | 412 kts | 284° |
| 2026-05-04 10:39 | 43.20556 | 92.18109 | 37673 ft | 413 kts | 284° |
| 2026-05-04 10:40 | 43.22311 | 92.10652 | 37675 ft | 413 kts | 284° |
| 2026-05-04 10:40 | 43.24073 | 92.03134 | 37678 ft | 413 kts | 284° |
| 2026-05-04 10:41 | 43.25829 | 91.95617 | 37682 ft | 414 kts | 284° |
| 2026-05-04 10:41 | 43.27582 | 91.88093 | 37683 ft | 415 kts | 284° |
| 2026-05-04 10:42 | 43.29330 | 91.80557 | 37686 ft | 415 kts | 284° |
| 2026-05-04 10:42 | 43.31081 | 91.72987 | 37692 ft | 416 kts | 283° |
| 2026-05-04 10:43 | 43.32821 | 91.65436 | 37698 ft | 416 kts | 283° |
| 2026-05-04 10:45 | 43.39772 | 91.35015 | 37734 ft | 418 kts | 283° |
| 2026-05-04 10:45 | 43.41504 | 91.27373 | 37742 ft | 418 kts | 283° |
| 2026-05-04 10:46 | 43.43230 | 91.19718 | 37757 ft | 419 kts | 283° |
| 2026-05-04 10:46 | 43.44949 | 91.12058 | 37771 ft | 420 kts | 283° |
| 2026-05-04 10:47 | 43.46667 | 91.04389 | 37773 ft | 420 kts | 283° |
| 2026-05-04 10:47 | 43.48369 | 90.96739 | 37783 ft | 420 kts | 283° |
| 2026-05-04 10:49 | 43.55187 | 90.65864 | 37821 ft | 423 kts | 282° |
| 2026-05-04 10:50 | 43.56891 | 90.58074 | 37837 ft | 423 kts | 282° |
| 2026-05-04 10:52 | 43.63654 | 90.26836 | 37872 ft | 428 kts | 282° |
| 2026-05-04 10:52 | 43.65357 | 90.18930 | 37875 ft | 428 kts | 282° |
| 2026-05-04 10:54 | 43.72372 | 89.87447 | 37859 ft | 430 kts | 283° |
| 2026-05-04 10:56 | 43.79513 | 89.55774 | 37852 ft | 432 kts | 282° |
| 2026-05-04 10:57 | 43.81295 | 89.47834 | 37851 ft | 432 kts | 283° |
| 2026-05-04 10:57 | 43.83129 | 89.39922 | 37852 ft | 433 kts | 283° |
| 2026-05-04 10:58 | 43.84979 | 89.31983 | 37853 ft | 433 kts | 283° |
| 2026-05-04 10:58 | 43.86815 | 89.24037 | 37857 ft | 433 kts | 283° |
| 2026-05-04 10:59 | 43.88641 | 89.16072 | 37862 ft | 434 kts | 283° |
| 2026-05-04 10:59 | 43.90453 | 89.08134 | 37867 ft | 434 kts | 283° |
| 2026-05-04 11:00 | 43.92269 | 89.00152 | 37869 ft | 434 kts | 283° |
| 2026-05-04 11:02 | 43.99768 | 88.68247 | 37886 ft | 436 kts | 285° |
| 2026-05-04 11:05 | 44.14541 | 88.08394 | 37850 ft | 432 kts | 276° |
| 2026-05-04 11:06 | 44.14795 | 88.00141 | 37842 ft | 426 kts | 262° |
| 2026-05-04 11:06 | 44.13346 | 87.92203 | 37839 ft | 424 kts | 247° |
| 2026-05-04 11:08 | 44.01298 | 87.68779 | 37850 ft | 427 kts | 234° |
| 2026-05-04 11:10 | 43.88822 | 87.45695 | 37858 ft | 428 kts | 237° |
| 2026-05-04 11:12 | 43.76636 | 87.18906 | 37876 ft | 430 kts | 237° |
| 2026-05-04 11:12 | 43.73365 | 87.11925 | 37885 ft | 431 kts | 237° |
| 2026-05-04 11:13 | 43.70100 | 87.04972 | 37906 ft | 432 kts | 237° |
| 2026-05-04 11:13 | 43.66831 | 86.98032 | 37912 ft | 432 kts | 237° |
| 2026-05-04 11:14 | 43.66278 | 86.96858 | 37917 ft | 432 kts | 237° |
| 2026-05-04 11:16 | 43.55524 | 86.60453 | 37986 ft | 446 kts | 273° |
| 2026-05-04 11:16 | 43.56447 | 86.51985 | 37993 ft | 447 kts | 275° |
| 2026-05-04 11:17 | 43.57479 | 86.43522 | 37999 ft | 448 kts | 275° |
| 2026-05-04 11:19 | 43.61070 | 86.09555 | 38015 ft | 450 kts | 274° |
| 2026-05-04 11:19 | 43.61993 | 86.00992 | 38015 ft | 451 kts | 275° |
| 2026-05-04 11:20 | 43.62930 | 85.92464 | 38013 ft | 449 kts | 275° |
| 2026-05-04 11:20 | 43.63868 | 85.83914 | 38016 ft | 452 kts | 274° |
| 2026-05-04 11:22 | 43.66541 | 85.49636 | 38008 ft | 449 kts | 272° |
| 2026-05-04 11:23 | 43.67193 | 85.41075 | 38012 ft | 452 kts | 272° |
| 2026-05-04 11:25 | 43.68283 | 85.10993 | 38020 ft | 442 kts | 255° |
| 2026-05-04 11:25 | 43.66065 | 85.03152 | 38020 ft | 438 kts | 239° |
| 2026-05-04 11:27 | 43.51125 | 84.71399 | 37997 ft | 441 kts | 236° |
| 2026-05-04 11:28 | 43.47773 | 84.64294 | 37987 ft | 440 kts | 236° |
| 2026-05-04 11:28 | 43.44432 | 84.57220 | 37979 ft | 440 kts | 236° |
| 2026-05-04 11:29 | 43.41088 | 84.50147 | 37978 ft | 441 kts | 236° |
| 2026-05-04 11:29 | 43.37851 | 84.43013 | 37976 ft | 443 kts | 241° |
| 2026-05-04 11:31 | 43.36558 | 84.13456 | 37985 ft | 458 kts | 274° |
| 2026-05-04 11:33 | 43.39348 | 83.83061 | 37996 ft | 458 kts | 273° |
| 2026-05-04 11:33 | 43.40096 | 83.74356 | 37998 ft | 458 kts | 273° |
| 2026-05-04 11:34 | 43.40839 | 83.65638 | 37999 ft | 458 kts | 273° |
| 2026-05-04 11:34 | 43.41577 | 83.56932 | 37999 ft | 459 kts | 273° |
| 2026-05-04 11:35 | 43.42306 | 83.48234 | 37999 ft | 459 kts | 273° |
| 2026-05-04 11:35 | 43.43032 | 83.39506 | 37996 ft | 459 kts | 273° |
| 2026-05-04 11:36 | 43.43615 | 83.30762 | 37989 ft | 458 kts | 270° |
| 2026-05-04 11:36 | 43.43873 | 83.22066 | 37984 ft | 457 kts | 269° |
| 2026-05-04 11:37 | 43.44104 | 83.13308 | 37981 ft | 458 kts | 269° |
| 2026-05-04 11:37 | 43.44386 | 83.04533 | 37978 ft | 459 kts | 270° |
| 2026-05-04 11:38 | 43.44688 | 82.95766 | 37967 ft | 459 kts | 270° |
| 2026-05-04 11:38 | 43.44989 | 82.86979 | 37967 ft | 460 kts | 270° |
| 2026-05-04 11:39 | 43.45283 | 82.78185 | 37967 ft | 460 kts | 270° |
| 2026-05-04 11:41 | 43.46253 | 82.47357 | 37961 ft | 462 kts | 270° |
| 2026-05-04 11:41 | 43.46516 | 82.38511 | 37966 ft | 463 kts | 270° |
| 2026-05-04 11:42 | 43.46772 | 82.29653 | 37967 ft | 463 kts | 269° |
| 2026-05-04 11:42 | 43.47022 | 82.20787 | 37968 ft | 463 kts | 269° |
| 2026-05-04 11:43 | 43.47263 | 82.11989 | 37972 ft | 463 kts | 269° |
| 2026-05-04 11:43 | 43.47499 | 82.03130 | 37978 ft | 463 kts | 269° |
| 2026-05-04 11:44 | 43.47729 | 81.94246 | 37980 ft | 463 kts | 269° |
| 2026-05-04 11:44 | 43.47950 | 81.85454 | 37984 ft | 462 kts | 269° |
| 2026-05-04 11:45 | 43.48165 | 81.76627 | 37988 ft | 461 kts | 269° |
| 2026-05-04 11:45 | 43.48370 | 81.67808 | 37994 ft | 461 kts | 269° |
| 2026-05-04 11:46 | 43.48560 | 81.58978 | 37993 ft | 461 kts | 269° |
| 2026-05-04 11:46 | 43.48740 | 81.50165 | 38003 ft | 461 kts | 269° |
| 2026-05-04 11:47 | 43.48914 | 81.41315 | 38002 ft | 460 kts | 269° |
| 2026-05-04 11:47 | 43.49080 | 81.32525 | 38006 ft | 460 kts | 269° |
| 2026-05-04 11:48 | 43.49238 | 81.23729 | 38009 ft | 460 kts | 269° |
| 2026-05-04 11:48 | 43.49391 | 81.14880 | 38011 ft | 460 kts | 269° |
| 2026-05-04 11:49 | 43.49541 | 81.06133 | 38010 ft | 460 kts | 269° |
| 2026-05-04 11:49 | 43.49685 | 80.97264 | 38013 ft | 460 kts | 269° |
| 2026-05-04 11:50 | 43.49819 | 80.88503 | 38014 ft | 460 kts | 269° |
| 2026-05-04 11:50 | 43.49946 | 80.79684 | 38012 ft | 460 kts | 269° |
| 2026-05-04 11:51 | 43.50074 | 80.70888 | 38016 ft | 460 kts | 269° |
| 2026-05-04 11:51 | 43.50373 | 80.62109 | 38008 ft | 461 kts | 271° |
| 2026-05-04 11:52 | 43.50765 | 80.53290 | 38009 ft | 461 kts | 271° |
| 2026-05-04 11:52 | 43.51130 | 80.44483 | 38005 ft | 461 kts | 271° |
| 2026-05-04 11:53 | 43.51461 | 80.35660 | 38002 ft | 462 kts | 271° |
| 2026-05-04 11:53 | 43.51775 | 80.26827 | 37998 ft | 462 kts | 271° |
| 2026-05-04 11:55 | 43.52971 | 79.91389 | 37982 ft | 463 kts | 271° |
| 2026-05-04 11:56 | 43.53252 | 79.82549 | 37978 ft | 463 kts | 271° |
| 2026-05-04 11:56 | 43.53532 | 79.73693 | 37975 ft | 464 kts | 271° |
| 2026-05-04 11:57 | 43.53801 | 79.64798 | 37974 ft | 464 kts | 271° |
| 2026-05-04 11:57 | 43.54063 | 79.55900 | 37970 ft | 464 kts | 271° |
| 2026-05-04 11:58 | 43.54318 | 79.47019 | 37969 ft | 464 kts | 271° |
| 2026-05-04 11:58 | 43.54568 | 79.38125 | 37964 ft | 464 kts | 271° |
| 2026-05-04 11:59 | 43.54810 | 79.29240 | 37964 ft | 464 kts | 270° |
| 2026-05-04 11:59 | 43.55050 | 79.20370 | 37963 ft | 463 kts | 270° |
| 2026-05-04 12:00 | 43.55277 | 79.11521 | 37965 ft | 461 kts | 270° |
| 2026-05-04 12:00 | 43.55454 | 79.04196 | 37968 ft | 459 kts | 270° |
| 2026-05-04 12:01 | 43.55665 | 78.95410 | 37971 ft | 459 kts | 270° |
| 2026-05-04 12:02 | 43.56367 | 78.64549 | 37977 ft | 459 kts | 270° |
| 2026-05-04 12:03 | 43.56549 | 78.55755 | 37990 ft | 460 kts | 270° |
| 2026-05-04 12:03 | 43.56725 | 78.46981 | 37983 ft | 461 kts | 270° |
| 2026-05-04 12:04 | 43.56897 | 78.38133 | 38000 ft | 462 kts | 270° |
| 2026-05-04 12:04 | 43.57062 | 78.29275 | 37992 ft | 462 kts | 270° |
| 2026-05-04 12:05 | 43.57219 | 78.20419 | 38012 ft | 463 kts | 270° |
| 2026-05-04 12:05 | 43.57370 | 78.11544 | 38007 ft | 463 kts | 270° |
| 2026-05-04 12:06 | 43.57518 | 78.02650 | 38010 ft | 464 kts | 270° |
| 2026-05-04 12:06 | 43.57657 | 77.93763 | 38020 ft | 464 kts | 270° |
| 2026-05-04 12:07 | 43.57787 | 77.84870 | 38012 ft | 464 kts | 270° |
| 2026-05-04 12:07 | 43.57912 | 77.75966 | 38019 ft | 465 kts | 270° |
| 2026-05-04 12:08 | 43.58031 | 77.67003 | 38030 ft | 465 kts | 270° |
| 2026-05-04 12:08 | 43.58143 | 77.58097 | 38020 ft | 465 kts | 270° |
| 2026-05-04 12:09 | 43.58251 | 77.49220 | 38023 ft | 465 kts | 270° |
| 2026-05-04 12:09 | 43.58510 | 77.40296 | 38037 ft | 466 kts | 271° |
| 2026-05-04 12:10 | 43.58865 | 77.31392 | 38034 ft | 466 kts | 272° |
| 2026-05-04 12:10 | 43.59200 | 77.22468 | 38047 ft | 466 kts | 271° |
| 2026-05-04 12:11 | 43.59501 | 77.13500 | 38042 ft | 466 kts | 271° |
| 2026-05-04 12:11 | 43.59628 | 77.04615 | 38051 ft | 466 kts | 269° |
| 2026-05-04 12:12 | 43.59659 | 76.95700 | 38050 ft | 466 kts | 269° |
| 2026-05-04 12:12 | 43.59714 | 76.86718 | 38047 ft | 466 kts | 269° |
| 2026-05-04 12:14 | 43.59935 | 76.50996 | 38047 ft | 466 kts | 269° |
| 2026-05-04 12:15 | 43.59973 | 76.42056 | 38053 ft | 466 kts | 269° |
| 2026-05-04 12:15 | 43.60005 | 76.33135 | 38047 ft | 466 kts | 269° |
| 2026-05-04 12:16 | 43.60228 | 76.24237 | 38052 ft | 467 kts | 272° |
| 2026-05-04 12:16 | 43.60723 | 76.15295 | 38060 ft | 467 kts | 273° |
| 2026-05-04 12:17 | 43.61225 | 76.06351 | 38066 ft | 467 kts | 272° |
| 2026-05-04 12:17 | 43.61665 | 75.97422 | 38061 ft | 467 kts | 272° |
| 2026-05-04 12:18 | 43.62070 | 75.88480 | 38062 ft | 467 kts | 272° |
| 2026-05-04 12:18 | 43.62462 | 75.79536 | 38071 ft | 467 kts | 272° |
| 2026-05-04 12:19 | 43.62850 | 75.70538 | 38069 ft | 467 kts | 272° |
| 2026-05-04 12:19 | 43.63232 | 75.61590 | 38071 ft | 467 kts | 272° |
| 2026-05-04 12:20 | 43.63607 | 75.52633 | 38071 ft | 467 kts | 272° |
| 2026-05-04 12:20 | 43.63970 | 75.43730 | 38074 ft | 467 kts | 272° |
| 2026-05-04 12:21 | 43.64331 | 75.34740 | 38076 ft | 467 kts | 272° |
| 2026-05-04 12:21 | 43.64683 | 75.25764 | 38084 ft | 468 kts | 271° |
| 2026-05-04 12:22 | 43.65028 | 75.16826 | 38084 ft | 468 kts | 271° |
| 2026-05-04 12:22 | 43.65368 | 75.07844 | 38083 ft | 468 kts | 271° |
| 2026-05-04 12:23 | 43.65699 | 74.98867 | 38086 ft | 468 kts | 271° |
| 2026-05-04 12:23 | 43.66024 | 74.89894 | 38090 ft | 468 kts | 271° |
| 2026-05-04 12:24 | 43.66341 | 74.80921 | 38089 ft | 469 kts | 271° |
| 2026-05-04 12:24 | 43.66652 | 74.71949 | 38093 ft | 469 kts | 271° |
| 2026-05-04 12:25 | 43.66956 | 74.62955 | 38082 ft | 469 kts | 271° |
| 2026-05-04 12:25 | 43.67254 | 74.53924 | 38083 ft | 470 kts | 271° |
| 2026-05-04 12:26 | 43.67544 | 74.44917 | 38081 ft | 470 kts | 271° |
| 2026-05-04 12:26 | 43.67827 | 74.35897 | 38075 ft | 470 kts | 271° |
| 2026-05-04 12:27 | 43.68104 | 74.26868 | 38074 ft | 470 kts | 271° |
| 2026-05-04 12:27 | 43.68375 | 74.17857 | 38075 ft | 470 kts | 271° |
| 2026-05-04 12:28 | 43.68649 | 74.08841 | 38067 ft | 471 kts | 271° |
| 2026-05-04 12:28 | 43.68917 | 73.99803 | 38065 ft | 471 kts | 271° |
| 2026-05-04 12:29 | 43.69177 | 73.90763 | 38061 ft | 471 kts | 271° |
| 2026-05-04 12:29 | 43.69431 | 73.81694 | 38066 ft | 472 kts | 271° |
| 2026-05-04 12:30 | 43.69474 | 73.72643 | 38065 ft | 471 kts | 266° |
| 2026-05-04 12:30 | 43.69085 | 73.63602 | 38068 ft | 471 kts | 265° |
| 2026-05-04 12:31 | 43.68613 | 73.54604 | 38063 ft | 472 kts | 265° |
| 2026-05-04 12:31 | 43.68124 | 73.45515 | 38066 ft | 472 kts | 265° |
| 2026-05-04 12:32 | 43.67398 | 73.31955 | 38070 ft | 472 kts | 265° |
| 2026-05-04 12:33 | 43.66912 | 73.22960 | 38066 ft | 473 kts | 265° |
| 2026-05-04 12:33 | 43.66417 | 73.13905 | 38066 ft | 473 kts | 265° |
| 2026-05-04 12:34 | 43.65913 | 73.04834 | 38067 ft | 473 kts | 265° |
| 2026-05-04 12:34 | 43.65401 | 72.95767 | 38069 ft | 473 kts | 265° |
| 2026-05-04 12:35 | 43.64885 | 72.86758 | 38071 ft | 473 kts | 265° |
| 2026-05-04 12:35 | 43.64357 | 72.77652 | 38071 ft | 474 kts | 265° |
| 2026-05-04 12:36 | 43.63826 | 72.68623 | 38068 ft | 474 kts | 265° |
| 2026-05-04 12:36 | 43.63287 | 72.59573 | 38067 ft | 474 kts | 265° |
| 2026-05-04 12:37 | 43.62739 | 72.50513 | 38068 ft | 474 kts | 265° |
| 2026-05-04 12:37 | 43.62185 | 72.41467 | 38066 ft | 474 kts | 265° |
| 2026-05-04 12:38 | 43.61622 | 72.32383 | 38066 ft | 474 kts | 265° |
| 2026-05-04 12:38 | 43.61054 | 72.23355 | 38062 ft | 474 kts | 265° |
| 2026-05-04 12:39 | 43.60479 | 72.14309 | 38063 ft | 474 kts | 265° |
| 2026-05-04 12:39 | 43.59893 | 72.05215 | 38059 ft | 474 kts | 265° |
| 2026-05-04 12:40 | 43.59303 | 71.96166 | 38058 ft | 474 kts | 264° |
| 2026-05-04 12:40 | 43.58706 | 71.87128 | 38054 ft | 474 kts | 264° |
| 2026-05-04 12:41 | 43.58102 | 71.78094 | 38052 ft | 474 kts | 264° |
| 2026-05-04 12:41 | 43.57491 | 71.69059 | 38047 ft | 474 kts | 264° |
| 2026-05-04 12:42 | 43.56871 | 71.60003 | 38044 ft | 474 kts | 264° |
| 2026-05-04 12:42 | 43.56242 | 71.50928 | 38041 ft | 475 kts | 264° |
| 2026-05-04 12:43 | 43.55608 | 71.41880 | 38040 ft | 475 kts | 264° |
| 2026-05-04 12:43 | 43.54967 | 71.32826 | 38039 ft | 475 kts | 264° |
| 2026-05-04 12:44 | 43.54317 | 71.23759 | 38037 ft | 475 kts | 264° |
| 2026-05-04 12:44 | 43.53660 | 71.14695 | 38037 ft | 475 kts | 264° |
| 2026-05-04 12:45 | 43.52997 | 71.05648 | 38031 ft | 476 kts | 264° |
| 2026-05-04 12:45 | 43.52321 | 70.96524 | 38030 ft | 476 kts | 264° |
| 2026-05-04 12:46 | 43.51646 | 70.87506 | 38028 ft | 477 kts | 264° |
| 2026-05-04 12:46 | 43.50952 | 70.78431 | 38025 ft | 477 kts | 264° |
| 2026-05-04 12:47 | 43.50242 | 70.69296 | 38023 ft | 477 kts | 264° |
| 2026-05-04 12:47 | 43.49528 | 70.60203 | 38021 ft | 478 kts | 264° |
| 2026-05-04 12:48 | 43.48808 | 70.51118 | 38024 ft | 478 kts | 264° |
| 2026-05-04 12:48 | 43.48078 | 70.42001 | 38023 ft | 479 kts | 264° |
| 2026-05-04 12:49 | 43.47342 | 70.32907 | 38022 ft | 479 kts | 264° |
| 2026-05-04 12:49 | 43.46724 | 70.25333 | 38026 ft | 479 kts | 264° |
| 2026-05-04 12:50 | 43.45848 | 70.14707 | 38027 ft | 479 kts | 264° |
| 2026-05-04 12:50 | 43.45089 | 70.05601 | 38035 ft | 480 kts | 264° |
| 2026-05-04 12:51 | 43.44449 | 69.97986 | 38030 ft | 480 kts | 264° |
| 2026-05-04 12:51 | 43.43675 | 69.88861 | 38033 ft | 480 kts | 264° |
| 2026-05-04 12:52 | 43.42896 | 69.79760 | 38036 ft | 480 kts | 264° |
| 2026-05-04 12:52 | 43.42113 | 69.70626 | 38029 ft | 481 kts | 264° |
| 2026-05-04 12:53 | 43.41351 | 69.61476 | 38029 ft | 481 kts | 264° |
| 2026-05-04 12:53 | 43.40593 | 69.52367 | 38029 ft | 481 kts | 264° |
| 2026-05-04 12:54 | 43.39818 | 69.43204 | 38028 ft | 481 kts | 264° |
| 2026-05-04 12:54 | 43.39034 | 69.34050 | 38025 ft | 482 kts | 264° |
| 2026-05-04 12:55 | 43.38246 | 69.24952 | 38024 ft | 482 kts | 264° |
| 2026-05-04 12:55 | 43.37442 | 69.15749 | 38022 ft | 482 kts | 264° |
| 2026-05-04 12:56 | 43.36679 | 69.06658 | 38019 ft | 482 kts | 265° |
| 2026-05-04 12:56 | 43.35924 | 68.97450 | 38026 ft | 482 kts | 265° |
| 2026-05-04 12:57 | 43.35169 | 68.88366 | 38014 ft | 482 kts | 265° |
| 2026-05-04 12:57 | 43.34391 | 68.79170 | 38021 ft | 482 kts | 265° |
| 2026-05-04 12:58 | 43.33606 | 68.70013 | 38013 ft | 482 kts | 264° |
| 2026-05-04 12:58 | 43.32816 | 68.60883 | 38009 ft | 482 kts | 264° |
| 2026-05-04 12:59 | 43.31950 | 68.51750 | 38001 ft | 482 kts | 263° |
| 2026-05-04 12:59 | 43.30833 | 68.42711 | 38008 ft | 483 kts | 261° |
| 2026-05-04 13:00 | 43.29634 | 68.33598 | 38002 ft | 483 kts | 260° |
| 2026-05-04 13:00 | 43.28023 | 68.24643 | 38001 ft | 484 kts | 256° |
| 2026-05-04 13:01 | 43.26233 | 68.15746 | 37995 ft | 484 kts | 256° |
| 2026-05-04 13:01 | 43.24508 | 68.06903 | 37995 ft | 483 kts | 257° |
| 2026-05-04 13:02 | 43.22819 | 67.97949 | 37987 ft | 483 kts | 257° |
| 2026-05-04 13:02 | 43.21148 | 67.89032 | 37992 ft | 483 kts | 257° |
| 2026-05-04 13:03 | 43.19481 | 67.80154 | 37987 ft | 482 kts | 257° |
| 2026-05-04 13:03 | 43.17798 | 67.71260 | 38001 ft | 482 kts | 257° |
| 2026-05-04 13:04 | 43.16113 | 67.62402 | 37992 ft | 482 kts | 257° |
| 2026-05-04 13:04 | 43.14414 | 67.53515 | 37994 ft | 481 kts | 257° |
| 2026-05-04 13:05 | 43.12712 | 67.44650 | 37976 ft | 481 kts | 257° |
| 2026-05-04 13:05 | 43.11006 | 67.35797 | 37990 ft | 480 kts | 257° |
| 2026-05-04 13:06 | 43.09300 | 67.26986 | 37988 ft | 480 kts | 257° |
| 2026-05-04 13:06 | 43.07592 | 67.18204 | 37981 ft | 479 kts | 257° |
| 2026-05-04 13:07 | 43.05866 | 67.09371 | 37982 ft | 479 kts | 257° |
| 2026-05-04 13:07 | 43.04153 | 67.00641 | 37982 ft | 478 kts | 257° |
| 2026-05-04 13:08 | 43.02416 | 66.91829 | 37974 ft | 477 kts | 257° |
| 2026-05-04 13:08 | 43.00697 | 66.83143 | 37970 ft | 476 kts | 257° |
| 2026-05-04 13:09 | 42.98960 | 66.74422 | 37972 ft | 475 kts | 257° |
| 2026-05-04 13:09 | 42.97196 | 66.65714 | 37975 ft | 475 kts | 257° |
| 2026-05-04 13:10 | 42.95428 | 66.57030 | 37973 ft | 474 kts | 257° |
| 2026-05-04 13:10 | 42.93685 | 66.48363 | 37976 ft | 473 kts | 257° |
| 2026-05-04 13:11 | 42.91943 | 66.39695 | 37971 ft | 473 kts | 257° |
| 2026-05-04 13:11 | 42.90198 | 66.31052 | 37970 ft | 472 kts | 257° |
| 2026-05-04 13:12 | 42.88447 | 66.22430 | 37970 ft | 472 kts | 257° |
| 2026-05-04 13:12 | 42.86700 | 66.13869 | 37971 ft | 471 kts | 257° |
| 2026-05-04 13:13 | 42.84940 | 66.05278 | 37971 ft | 471 kts | 256° |
| 2026-05-04 13:13 | 42.83158 | 65.96701 | 37975 ft | 470 kts | 256° |
| 2026-05-04 13:14 | 42.81367 | 65.88146 | 37976 ft | 469 kts | 256° |
| 2026-05-04 13:14 | 42.79573 | 65.79596 | 37976 ft | 469 kts | 256° |
| 2026-05-04 13:15 | 42.77787 | 65.71087 | 37974 ft | 468 kts | 256° |
| 2026-05-04 13:15 | 42.75978 | 65.62522 | 37977 ft | 468 kts | 256° |
| 2026-05-04 13:16 | 42.74175 | 65.54030 | 37978 ft | 467 kts | 256° |
| 2026-05-04 13:16 | 42.72372 | 65.45571 | 37976 ft | 467 kts | 256° |
| 2026-05-04 13:17 | 42.70562 | 65.37104 | 37979 ft | 467 kts | 256° |
| 2026-05-04 13:17 | 42.68743 | 65.28629 | 37979 ft | 466 kts | 256° |
| 2026-05-04 13:18 | 42.66921 | 65.20174 | 37978 ft | 466 kts | 256° |
| 2026-05-04 13:18 | 42.65103 | 65.11773 | 37978 ft | 466 kts | 256° |
| 2026-05-04 13:19 | 42.63268 | 65.03325 | 37978 ft | 465 kts | 256° |
| 2026-05-04 13:19 | 42.61432 | 64.94907 | 37978 ft | 465 kts | 256° |
| 2026-05-04 13:20 | 42.59593 | 64.86505 | 37985 ft | 465 kts | 255° |
| 2026-05-04 13:20 | 42.57734 | 64.78049 | 37978 ft | 465 kts | 255° |
| 2026-05-04 13:21 | 42.55893 | 64.69709 | 37982 ft | 464 kts | 255° |
| 2026-05-04 13:21 | 42.54029 | 64.61296 | 37983 ft | 464 kts | 255° |
| 2026-05-04 13:22 | 42.52165 | 64.52915 | 37982 ft | 464 kts | 255° |
| 2026-05-04 13:22 | 42.50296 | 64.44545 | 37980 ft | 464 kts | 255° |
| 2026-05-04 13:23 | 42.48420 | 64.36176 | 37977 ft | 464 kts | 255° |
| 2026-05-04 13:23 | 42.46547 | 64.27851 | 37978 ft | 464 kts | 255° |
| 2026-05-04 13:24 | 42.44666 | 64.19509 | 37972 ft | 463 kts | 255° |
| 2026-05-04 13:24 | 42.42797 | 64.11175 | 37976 ft | 463 kts | 255° |
| 2026-05-04 13:25 | 42.39980 | 63.98656 | 37977 ft | 463 kts | 255° |
| 2026-05-04 13:25 | 42.38079 | 63.90333 | 37976 ft | 463 kts | 255° |
| 2026-05-04 13:26 | 42.36154 | 63.82023 | 37974 ft | 463 kts | 254° |
| 2026-05-04 13:26 | 42.34226 | 63.73719 | 37973 ft | 463 kts | 254° |
| 2026-05-04 13:27 | 42.32295 | 63.65414 | 37976 ft | 463 kts | 254° |
| 2026-05-04 13:27 | 42.30369 | 63.57151 | 37971 ft | 463 kts | 254° |
| 2026-05-04 13:28 | 42.28426 | 63.48849 | 37966 ft | 463 kts | 254° |
| 2026-05-04 13:28 | 42.26478 | 63.40556 | 37963 ft | 463 kts | 254° |
| 2026-05-04 13:29 | 42.24526 | 63.32276 | 37963 ft | 463 kts | 254° |
| 2026-05-04 13:29 | 42.22567 | 63.23999 | 37958 ft | 463 kts | 254° |
| 2026-05-04 13:30 | 42.20609 | 63.15756 | 37955 ft | 463 kts | 254° |
| 2026-05-04 13:30 | 42.18633 | 63.07464 | 37950 ft | 462 kts | 254° |
| 2026-05-04 13:31 | 42.16660 | 62.99217 | 37946 ft | 462 kts | 254° |
| 2026-05-04 13:31 | 42.14687 | 62.90985 | 37951 ft | 462 kts | 254° |
| 2026-05-04 13:32 | 42.12720 | 62.82801 | 37944 ft | 462 kts | 254° |
| 2026-05-04 13:32 | 42.10738 | 62.74582 | 37949 ft | 461 kts | 254° |
| 2026-05-04 13:33 | 42.08741 | 62.66330 | 37945 ft | 461 kts | 254° |
| 2026-05-04 13:33 | 42.06765 | 62.58178 | 37945 ft | 461 kts | 254° |
| 2026-05-04 13:34 | 42.04763 | 62.49969 | 37947 ft | 461 kts | 253° |
| 2026-05-04 13:34 | 42.02760 | 62.41793 | 37945 ft | 461 kts | 253° |
| 2026-05-04 13:35 | 41.99736 | 62.29494 | 37942 ft | 462 kts | 253° |
| 2026-05-04 13:36 | 41.97709 | 62.21282 | 37944 ft | 462 kts | 253° |
| 2026-05-04 13:36 | 41.95681 | 62.13093 | 37942 ft | 463 kts | 253° |
| 2026-05-04 13:37 | 41.93643 | 62.04882 | 37949 ft | 463 kts | 253° |
| 2026-05-04 13:37 | 41.91618 | 61.96739 | 37942 ft | 463 kts | 253° |
| 2026-05-04 13:38 | 41.89570 | 61.88541 | 37949 ft | 463 kts | 253° |
| 2026-05-04 13:38 | 41.87519 | 61.80360 | 37949 ft | 463 kts | 253° |
| 2026-05-04 13:39 | 41.85461 | 61.72171 | 37945 ft | 462 kts | 253° |
| 2026-05-04 13:39 | 41.83399 | 61.64019 | 37945 ft | 462 kts | 252° |
| 2026-05-04 13:40 | 41.81679 | 61.57255 | 37954 ft | 461 kts | 252° |
| 2026-05-04 13:40 | 41.79606 | 61.49123 | 37958 ft | 461 kts | 252° |
| 2026-05-04 13:41 | 41.77189 | 61.39672 | 37960 ft | 460 kts | 252° |
| 2026-05-04 13:41 | 41.75442 | 61.32861 | 37957 ft | 460 kts | 252° |
| 2026-05-04 13:42 | 41.72329 | 61.20773 | 37958 ft | 460 kts | 252° |
| 2026-05-04 13:42 | 41.70236 | 61.12681 | 37962 ft | 459 kts | 252° |
| 2026-05-04 13:43 | 41.68136 | 61.04588 | 37955 ft | 459 kts | 252° |
| 2026-05-04 13:43 | 41.66048 | 60.96569 | 37963 ft | 459 kts | 252° |
| 2026-05-04 13:44 | 41.63932 | 60.88467 | 37957 ft | 459 kts | 252° |
| 2026-05-04 13:44 | 41.61825 | 60.80429 | 37957 ft | 459 kts | 252° |
| 2026-05-04 13:45 | 41.59710 | 60.72385 | 37964 ft | 458 kts | 252° |
| 2026-05-04 13:45 | 41.57595 | 60.64361 | 37959 ft | 458 kts | 252° |
| 2026-05-04 13:46 | 41.55634 | 60.56287 | 37960 ft | 457 kts | 254° |
| 2026-05-04 13:46 | 41.53785 | 60.48172 | 37950 ft | 457 kts | 254° |
| 2026-05-04 13:47 | 41.51938 | 60.40038 | 37956 ft | 457 kts | 254° |
| 2026-05-04 13:47 | 41.50057 | 60.31929 | 37955 ft | 457 kts | 254° |
| 2026-05-04 13:48 | 41.48157 | 60.23857 | 37951 ft | 457 kts | 253° |
| 2026-05-04 13:48 | 41.46249 | 60.15799 | 37948 ft | 457 kts | 253° |
| 2026-05-04 13:49 | 41.44314 | 60.07751 | 37947 ft | 456 kts | 253° |
| 2026-05-04 13:49 | 41.42369 | 59.99713 | 37950 ft | 456 kts | 253° |
| 2026-05-04 13:50 | 41.40410 | 59.91631 | 37951 ft | 457 kts | 253° |
| 2026-05-04 13:50 | 41.38460 | 59.83598 | 37949 ft | 456 kts | 253° |
| 2026-05-04 13:51 | 41.36513 | 59.75605 | 37949 ft | 457 kts | 253° |
| 2026-05-04 13:51 | 41.34638 | 59.67509 | 37940 ft | 456 kts | 257° |
| 2026-05-04 13:52 | 41.33193 | 59.55051 | 37945 ft | 455 kts | 263° |
| 2026-05-04 13:53 | 41.32431 | 59.46672 | 37944 ft | 455 kts | 263° |
| 2026-05-04 13:53 | 41.31673 | 59.38318 | 37942 ft | 455 kts | 263° |
| 2026-05-04 13:54 | 41.30491 | 59.25792 | 37937 ft | 455 kts | 263° |
| 2026-05-04 13:55 | 41.29281 | 59.13297 | 37932 ft | 455 kts | 263° |
| 2026-05-04 13:55 | 41.28060 | 59.00818 | 37928 ft | 454 kts | 263° |
| 2026-05-04 13:56 | 41.27237 | 58.92481 | 37925 ft | 454 kts | 263° |
| 2026-05-04 13:57 | 41.25991 | 58.79972 | 37921 ft | 454 kts | 262° |
| 2026-05-04 13:58 | 41.24314 | 58.63352 | 37912 ft | 454 kts | 262° |
| 2026-05-04 13:58 | 41.23042 | 58.50914 | 37917 ft | 454 kts | 262° |
| 2026-05-04 13:59 | 41.22183 | 58.42590 | 37910 ft | 454 kts | 262° |
| 2026-05-04 14:00 | 41.20886 | 58.30128 | 37899 ft | 454 kts | 262° |
| 2026-05-04 14:00 | 41.19578 | 58.17703 | 37899 ft | 453 kts | 262° |
| 2026-05-04 14:01 | 41.18700 | 58.09426 | 37891 ft | 453 kts | 262° |
| 2026-05-04 14:02 | 41.17375 | 57.97035 | 37887 ft | 453 kts | 262° |
| 2026-05-04 14:02 | 41.16481 | 57.88753 | 37891 ft | 452 kts | 262° |
| 2026-05-04 14:03 | 41.15584 | 57.80505 | 37894 ft | 452 kts | 262° |
| 2026-05-04 14:03 | 41.14682 | 57.72252 | 37886 ft | 452 kts | 262° |
| 2026-05-04 14:04 | 41.13313 | 57.59846 | 37878 ft | 453 kts | 262° |
| 2026-05-04 14:04 | 41.12394 | 57.51583 | 37874 ft | 452 kts | 262° |
| 2026-05-04 14:05 | 41.11008 | 57.39235 | 37875 ft | 452 kts | 262° |
| 2026-05-04 14:06 | 41.10077 | 57.31006 | 37873 ft | 452 kts | 262° |
| 2026-05-04 14:06 | 41.09142 | 57.22789 | 37870 ft | 451 kts | 262° |
| 2026-05-04 14:07 | 41.08196 | 57.14534 | 37872 ft | 451 kts | 262° |
| 2026-05-04 14:07 | 41.07252 | 57.06351 | 37866 ft | 450 kts | 262° |
| 2026-05-04 14:08 | 41.06303 | 56.98173 | 37862 ft | 449 kts | 261° |
| 2026-05-04 14:08 | 41.05348 | 56.89999 | 37864 ft | 449 kts | 261° |
| 2026-05-04 14:09 | 41.03906 | 56.77751 | 37863 ft | 448 kts | 261° |
| 2026-05-04 14:10 | 41.02457 | 56.65560 | 37853 ft | 447 kts | 261° |
| 2026-05-04 14:10 | 41.01485 | 56.57450 | 37846 ft | 446 kts | 261° |
| 2026-05-04 14:11 | 41.00721 | 56.49335 | 37843 ft | 446 kts | 267° |
| 2026-05-04 14:11 | 41.00473 | 56.37010 | 37836 ft | 445 kts | 269° |
| 2026-05-04 14:12 | 41.00396 | 56.28819 | 37842 ft | 445 kts | 269° |
| 2026-05-04 14:13 | 41.00263 | 56.16583 | 37833 ft | 444 kts | 269° |
| 2026-05-04 14:13 | 41.00153 | 56.08426 | 37823 ft | 443 kts | 269° |
| 2026-05-04 14:14 | 41.00033 | 56.00258 | 37831 ft | 443 kts | 268° |
| 2026-05-04 14:14 | 40.99843 | 55.88064 | 37824 ft | 442 kts | 268° |
| 2026-05-04 14:15 | 40.99576 | 55.71765 | 37817 ft | 442 kts | 268° |
| 2026-05-04 14:16 | 40.99386 | 55.59593 | 37817 ft | 442 kts | 268° |
| 2026-05-04 14:17 | 40.99183 | 55.47399 | 37821 ft | 441 kts | 268° |
| 2026-05-04 14:18 | 40.98964 | 55.35242 | 37822 ft | 441 kts | 268° |
| 2026-05-04 14:19 | 40.98651 | 55.19034 | 37822 ft | 440 kts | 268° |
| 2026-05-04 14:19 | 40.98488 | 55.10951 | 37825 ft | 440 kts | 268° |
| 2026-05-04 14:20 | 40.98319 | 55.02857 | 37823 ft | 439 kts | 268° |
| 2026-05-04 14:20 | 40.98144 | 54.94808 | 37822 ft | 439 kts | 268° |
| 2026-05-04 14:21 | 40.97872 | 54.82655 | 37825 ft | 439 kts | 268° |
| 2026-05-04 14:21 | 40.97674 | 54.74612 | 37829 ft | 439 kts | 268° |
| 2026-05-04 14:22 | 40.97468 | 54.66543 | 37826 ft | 439 kts | 268° |
| 2026-05-04 14:22 | 40.97259 | 54.58487 | 37829 ft | 439 kts | 268° |
| 2026-05-04 14:23 | 40.96936 | 54.46398 | 37827 ft | 439 kts | 268° |
| 2026-05-04 14:24 | 40.96714 | 54.38321 | 37829 ft | 440 kts | 267° |
| 2026-05-04 14:24 | 40.96486 | 54.30237 | 37830 ft | 440 kts | 267° |
| 2026-05-04 14:25 | 40.96252 | 54.22149 | 37832 ft | 440 kts | 267° |
| 2026-05-04 14:25 | 40.95889 | 54.09963 | 37835 ft | 441 kts | 267° |
| 2026-05-04 14:26 | 40.95640 | 54.01862 | 37839 ft | 441 kts | 267° |
| 2026-05-04 14:26 | 40.95429 | 53.95125 | 37839 ft | 442 kts | 267° |
| 2026-05-04 14:27 | 40.95126 | 53.85663 | 37841 ft | 442 kts | 267° |
| 2026-05-04 14:27 | 40.94904 | 53.78875 | 37843 ft | 442 kts | 266° |
| 2026-05-04 14:28 | 40.94634 | 53.70761 | 37844 ft | 442 kts | 266° |
| 2026-05-04 14:28 | 40.94356 | 53.62627 | 37845 ft | 442 kts | 266° |
| 2026-05-04 14:29 | 40.93786 | 53.46401 | 37846 ft | 442 kts | 266° |
| 2026-05-04 14:30 | 40.93493 | 53.38296 | 37844 ft | 441 kts | 266° |
| 2026-05-04 14:31 | 40.93043 | 53.26170 | 37851 ft | 441 kts | 266° |
| 2026-05-04 14:32 | 40.92425 | 53.09980 | 37849 ft | 441 kts | 266° |
| 2026-05-04 14:32 | 40.92102 | 53.01890 | 37851 ft | 440 kts | 265° |
| 2026-05-04 14:33 | 40.91764 | 52.93806 | 37851 ft | 440 kts | 265° |
| 2026-05-04 14:33 | 40.91423 | 52.85722 | 37853 ft | 440 kts | 265° |
| 2026-05-04 14:34 | 40.91079 | 52.77649 | 37851 ft | 440 kts | 265° |
| 2026-05-04 14:34 | 40.90730 | 52.69582 | 37853 ft | 440 kts | 265° |
| 2026-05-04 14:35 | 40.90315 | 52.61519 | 37850 ft | 440 kts | 262° |
| 2026-05-04 14:35 | 40.89256 | 52.53548 | 37856 ft | 440 kts | 258° |
| 2026-05-04 14:36 | 40.88015 | 52.45620 | 37855 ft | 440 kts | 257° |
| 2026-05-04 14:36 | 40.86752 | 52.37759 | 37853 ft | 440 kts | 257° |
| 2026-05-04 14:37 | 40.85488 | 52.29851 | 37855 ft | 440 kts | 257° |
| 2026-05-04 14:37 | 40.84230 | 52.21954 | 37854 ft | 440 kts | 257° |
| 2026-05-04 14:38 | 40.82962 | 52.14010 | 37853 ft | 440 kts | 257° |
| 2026-05-04 14:38 | 40.81697 | 52.06123 | 37855 ft | 439 kts | 257° |
| 2026-05-04 14:39 | 40.80425 | 51.98228 | 37857 ft | 439 kts | 257° |
| 2026-05-04 14:39 | 40.79155 | 51.90385 | 37863 ft | 439 kts | 257° |
| 2026-05-04 14:40 | 40.77230 | 51.78567 | 37860 ft | 439 kts | 257° |
| 2026-05-04 14:40 | 40.75940 | 51.70692 | 37863 ft | 438 kts | 257° |
| 2026-05-04 14:41 | 40.74657 | 51.62893 | 37861 ft | 438 kts | 256° |
| 2026-05-04 14:42 | 40.72424 | 51.47083 | 37863 ft | 440 kts | 263° |
| 2026-05-04 14:42 | 40.72026 | 51.39020 | 37862 ft | 440 kts | 264° |
| 2026-05-04 14:43 | 40.71726 | 51.30980 | 37866 ft | 440 kts | 265° |
| 2026-05-04 14:43 | 40.71423 | 51.22907 | 37867 ft | 440 kts | 264° |
| 2026-05-04 14:44 | 40.71100 | 51.14909 | 37863 ft | 440 kts | 264° |
| 2026-05-04 14:44 | 40.70761 | 51.06859 | 37864 ft | 440 kts | 264° |
| 2026-05-04 14:45 | 40.70414 | 50.98783 | 37861 ft | 439 kts | 264° |
| 2026-05-04 14:45 | 40.70064 | 50.90747 | 37860 ft | 439 kts | 264° |
| 2026-05-04 14:46 | 40.69710 | 50.82754 | 37860 ft | 439 kts | 264° |
| 2026-05-04 14:46 | 40.69349 | 50.74714 | 37851 ft | 439 kts | 264° |
| 2026-05-04 14:47 | 40.68984 | 50.66697 | 37849 ft | 438 kts | 263° |
| 2026-05-04 14:47 | 40.68613 | 50.58690 | 37853 ft | 438 kts | 263° |
| 2026-05-04 14:48 | 40.68237 | 50.50692 | 37857 ft | 437 kts | 263° |
| 2026-05-04 14:48 | 40.67856 | 50.42698 | 37840 ft | 437 kts | 263° |
| 2026-05-04 14:49 | 40.67474 | 50.34732 | 37845 ft | 436 kts | 263° |
| 2026-05-04 14:49 | 40.67080 | 50.26763 | 37839 ft | 436 kts | 263° |
| 2026-05-04 14:50 | 40.66680 | 50.18794 | 37842 ft | 436 kts | 263° |
| 2026-05-04 14:50 | 40.66276 | 50.10823 | 37839 ft | 436 kts | 263° |
| 2026-05-04 14:51 | 40.65868 | 50.02866 | 37839 ft | 436 kts | 263° |
| 2026-05-04 14:51 | 40.65455 | 49.94917 | 37838 ft | 436 kts | 263° |
| 2026-05-04 14:52 | 40.65034 | 49.86935 | 37839 ft | 436 kts | 263° |
| 2026-05-04 14:52 | 40.64609 | 49.78968 | 37849 ft | 437 kts | 262° |
| 2026-05-04 14:53 | 40.64177 | 49.70980 | 37854 ft | 438 kts | 262° |
| 2026-05-04 14:53 | 40.63738 | 49.62946 | 37861 ft | 438 kts | 262° |
| 2026-05-04 14:54 | 40.63293 | 49.54927 | 37864 ft | 439 kts | 262° |
| 2026-05-04 14:54 | 40.62846 | 49.46960 | 37854 ft | 439 kts | 262° |
| 2026-05-04 14:55 | 40.62389 | 49.38927 | 37861 ft | 440 kts | 262° |
| 2026-05-04 14:55 | 40.61927 | 49.30887 | 37859 ft | 440 kts | 262° |
| 2026-05-04 14:56 | 40.61457 | 49.22816 | 37851 ft | 441 kts | 262° |
| 2026-05-04 14:56 | 40.61043 | 49.14803 | 37847 ft | 443 kts | 264° |
| 2026-05-04 14:57 | 40.60887 | 49.06687 | 37846 ft | 444 kts | 265° |
| 2026-05-04 14:57 | 40.60798 | 48.98572 | 37841 ft | 444 kts | 265° |
| 2026-05-04 14:58 | 40.60688 | 48.90464 | 37840 ft | 444 kts | 265° |
| 2026-05-04 14:58 | 40.60535 | 48.82348 | 37842 ft | 444 kts | 264° |
| 2026-05-04 14:59 | 40.60359 | 48.74244 | 37844 ft | 444 kts | 264° |
| 2026-05-04 15:00 | 40.60081 | 48.62054 | 37848 ft | 444 kts | 264° |
| 2026-05-04 15:00 | 40.59892 | 48.53930 | 37850 ft | 444 kts | 264° |
| 2026-05-04 15:01 | 40.59595 | 48.41736 | 37844 ft | 444 kts | 264° |
| 2026-05-04 15:01 | 40.59392 | 48.33605 | 37848 ft | 444 kts | 264° |
| 2026-05-04 15:02 | 40.59183 | 48.25494 | 37855 ft | 444 kts | 264° |
| 2026-05-04 15:02 | 40.58968 | 48.17431 | 37853 ft | 443 kts | 264° |
| 2026-05-04 15:03 | 40.58744 | 48.09274 | 37855 ft | 444 kts | 264° |
| 2026-05-04 15:03 | 40.58786 | 48.01138 | 37861 ft | 449 kts | 271° |
| 2026-05-04 15:04 | 40.60333 | 47.93150 | 37848 ft | 462 kts | 287° |
| 2026-05-04 15:04 | 40.63738 | 47.85823 | 37842 ft | 475 kts | 300° |
| 2026-05-04 15:05 | 40.67827 | 47.78991 | 37836 ft | 477 kts | 302° |
| 2026-05-04 15:05 | 40.72020 | 47.72185 | 37834 ft | 478 kts | 302° |
| 2026-05-04 15:06 | 40.76186 | 47.65374 | 37832 ft | 478 kts | 302° |
| 2026-05-04 15:07 | 40.82408 | 47.55058 | 37838 ft | 479 kts | 302° |
| 2026-05-04 15:07 | 40.86522 | 47.48174 | 37846 ft | 479 kts | 302° |
| 2026-05-04 15:08 | 40.90646 | 47.41252 | 37861 ft | 480 kts | 302° |
| 2026-05-04 15:08 | 40.94796 | 47.34272 | 37874 ft | 481 kts | 302° |
| 2026-05-04 15:09 | 40.98912 | 47.27338 | 37877 ft | 481 kts | 302° |
| 2026-05-04 15:09 | 41.03049 | 47.20354 | 37890 ft | 482 kts | 302° |
| 2026-05-04 15:10 | 41.09265 | 47.09828 | 37898 ft | 483 kts | 301° |
| 2026-05-04 15:11 | 41.15455 | 46.99305 | 37898 ft | 484 kts | 301° |
| 2026-05-04 15:11 | 41.19594 | 46.92254 | 37907 ft | 485 kts | 301° |
| 2026-05-04 15:12 | 41.23740 | 46.85171 | 37896 ft | 486 kts | 301° |
| 2026-05-04 15:12 | 41.27734 | 46.77977 | 37905 ft | 481 kts | 295° |
| 2026-05-04 15:13 | 41.30334 | 46.69928 | 37910 ft | 467 kts | 279° |
| 2026-05-04 15:13 | 41.31699 | 46.61523 | 37910 ft | 464 kts | 275° |
| 2026-05-04 15:14 | 41.32825 | 46.53081 | 37910 ft | 465 kts | 275° |
| 2026-05-04 15:14 | 41.33937 | 46.44651 | 37900 ft | 465 kts | 275° |
| 2026-05-04 15:15 | 41.34896 | 46.37566 | 37897 ft | 466 kts | 275° |
| 2026-05-04 15:15 | 41.36062 | 46.29091 | 37889 ft | 466 kts | 275° |
| 2026-05-04 15:16 | 41.37805 | 46.16360 | 37883 ft | 466 kts | 275° |
| 2026-05-04 15:17 | 41.39530 | 46.03623 | 37879 ft | 467 kts | 275° |
| 2026-05-04 15:17 | 41.41245 | 45.90834 | 37872 ft | 468 kts | 275° |
| 2026-05-04 15:18 | 41.42378 | 45.82316 | 37867 ft | 468 kts | 275° |
| 2026-05-04 15:19 | 41.44077 | 45.69478 | 37867 ft | 469 kts | 275° |
| 2026-05-04 15:19 | 41.45763 | 45.56601 | 37859 ft | 470 kts | 275° |
| 2026-05-04 15:20 | 41.46874 | 45.48063 | 37861 ft | 470 kts | 274° |
| 2026-05-04 15:20 | 41.47985 | 45.39470 | 37861 ft | 470 kts | 274° |
| 2026-05-04 15:21 | 41.49000 | 45.30854 | 37851 ft | 469 kts | 272° |
| 2026-05-04 15:22 | 41.49983 | 45.17912 | 37844 ft | 469 kts | 270° |
| 2026-05-04 15:22 | 41.50941 | 45.04884 | 37840 ft | 471 kts | 270° |
| 2026-05-04 15:23 | 41.51626 | 44.96190 | 37835 ft | 472 kts | 271° |
| 2026-05-04 15:23 | 41.52320 | 44.87469 | 37838 ft | 473 kts | 271° |
| 2026-05-04 15:24 | 41.53686 | 44.70004 | 37845 ft | 474 kts | 270° |
| 2026-05-04 15:25 | 41.54362 | 44.61239 | 37853 ft | 474 kts | 270° |
| 2026-05-04 15:26 | 41.55356 | 44.48109 | 37863 ft | 475 kts | 270° |
| 2026-05-04 15:26 | 41.56333 | 44.34995 | 37860 ft | 475 kts | 270° |
| 2026-05-04 15:27 | 41.56927 | 44.21796 | 37851 ft | 468 kts | 261° |
| 2026-05-04 15:28 | 41.55712 | 44.08925 | 37848 ft | 465 kts | 256° |
| 2026-05-04 15:29 | 41.54235 | 43.96127 | 37845 ft | 466 kts | 256° |
| 2026-05-04 15:30 | 41.50826 | 43.66106 | 37835 ft | 469 kts | 256° |
| 2026-05-04 15:31 | 41.49347 | 43.53221 | 37827 ft | 469 kts | 256° |
| 2026-05-04 15:32 | 41.46842 | 43.31729 | 37812 ft | 470 kts | 256° |
| 2026-05-04 15:34 | 41.44285 | 43.10155 | 37818 ft | 472 kts | 256° |
| 2026-05-04 15:34 | 41.42727 | 42.97168 | 37826 ft | 474 kts | 256° |
| 2026-05-04 15:35 | 41.41154 | 42.84121 | 37837 ft | 475 kts | 256° |
| 2026-05-04 15:36 | 41.39556 | 42.71125 | 37850 ft | 476 kts | 256° |
| 2026-05-04 15:36 | 41.38470 | 42.62371 | 37855 ft | 477 kts | 256° |
| 2026-05-04 15:37 | 41.37396 | 42.53724 | 37859 ft | 477 kts | 256° |
| 2026-05-04 15:37 | 41.36309 | 42.45005 | 37863 ft | 478 kts | 256° |
| 2026-05-04 15:38 | 41.35204 | 42.36226 | 37860 ft | 478 kts | 256° |
| 2026-05-04 15:38 | 41.34095 | 42.27495 | 37863 ft | 479 kts | 256° |
| 2026-05-04 15:39 | 41.32987 | 42.18773 | 37862 ft | 479 kts | 256° |
| 2026-05-04 15:40 | 41.31310 | 42.05678 | 37876 ft | 481 kts | 256° |
| 2026-05-04 15:40 | 41.30174 | 41.96899 | 37862 ft | 481 kts | 256° |
| 2026-05-04 15:41 | 41.29028 | 41.88135 | 37892 ft | 482 kts | 256° |
| 2026-05-04 15:41 | 41.27866 | 41.79379 | 37874 ft | 482 kts | 256° |
| 2026-05-04 15:42 | 41.26692 | 41.70595 | 37874 ft | 482 kts | 256° |
| 2026-05-04 15:42 | 41.25511 | 41.61798 | 37881 ft | 483 kts | 256° |
| 2026-05-04 15:43 | 41.24334 | 41.53018 | 37881 ft | 484 kts | 256° |
| 2026-05-04 15:43 | 41.23148 | 41.44230 | 37875 ft | 484 kts | 256° |
| 2026-05-04 15:44 | 41.21946 | 41.35401 | 37875 ft | 485 kts | 256° |
| 2026-05-04 15:44 | 41.20738 | 41.26598 | 37868 ft | 485 kts | 256° |
| 2026-05-04 15:45 | 41.19519 | 41.17778 | 37871 ft | 486 kts | 256° |
| 2026-05-04 15:45 | 41.18295 | 41.08935 | 37867 ft | 487 kts | 256° |
| 2026-05-04 15:46 | 41.17072 | 41.00138 | 37867 ft | 487 kts | 256° |
| 2026-05-04 15:46 | 41.15832 | 40.91298 | 37866 ft | 487 kts | 256° |
| 2026-05-04 15:47 | 41.14586 | 40.82469 | 37861 ft | 488 kts | 256° |
| 2026-05-04 15:47 | 41.13333 | 40.73633 | 37858 ft | 488 kts | 256° |
| 2026-05-04 15:48 | 41.12071 | 40.64790 | 37853 ft | 488 kts | 256° |
| 2026-05-04 15:48 | 41.10161 | 40.51514 | 37847 ft | 489 kts | 256° |
| 2026-05-04 15:49 | 41.08880 | 40.42660 | 37845 ft | 490 kts | 256° |
| 2026-05-04 15:49 | 41.07588 | 40.33787 | 37844 ft | 490 kts | 256° |
| 2026-05-04 15:50 | 41.06288 | 40.24919 | 37840 ft | 490 kts | 256° |
| 2026-05-04 15:50 | 41.04984 | 40.16056 | 37843 ft | 490 kts | 256° |
| 2026-05-04 15:51 | 41.03672 | 40.07188 | 37847 ft | 491 kts | 256° |
| 2026-05-04 15:51 | 41.02352 | 39.98321 | 37852 ft | 491 kts | 256° |
| 2026-05-04 15:52 | 41.01027 | 39.89467 | 37858 ft | 491 kts | 256° |
| 2026-05-04 15:52 | 40.99925 | 39.80546 | 37857 ft | 495 kts | 263° |
| 2026-05-04 15:53 | 41.00249 | 39.71394 | 37859 ft | 499 kts | 272° |
| 2026-05-04 15:53 | 41.01079 | 39.62257 | 37858 ft | 500 kts | 274° |
| 2026-05-04 15:54 | 41.01990 | 39.53150 | 37856 ft | 500 kts | 274° |
| 2026-05-04 15:54 | 41.02890 | 39.44021 | 37852 ft | 500 kts | 274° |
| 2026-05-04 15:55 | 41.03763 | 39.34942 | 37858 ft | 499 kts | 274° |
| 2026-05-04 15:55 | 41.04622 | 39.25826 | 37848 ft | 499 kts | 274° |
| 2026-05-04 15:56 | 41.05462 | 39.16697 | 37854 ft | 499 kts | 274° |
| 2026-05-04 15:56 | 41.06300 | 39.07562 | 37847 ft | 500 kts | 274° |
| 2026-05-04 15:57 | 41.07139 | 38.98394 | 37852 ft | 500 kts | 274° |
| 2026-05-04 15:57 | 41.07968 | 38.89261 | 37846 ft | 500 kts | 274° |
| 2026-05-04 15:58 | 41.08793 | 38.80109 | 37847 ft | 500 kts | 274° |
| 2026-05-04 15:58 | 41.09607 | 38.70965 | 37856 ft | 500 kts | 274° |
| 2026-05-04 15:59 | 41.10403 | 38.61821 | 37847 ft | 500 kts | 274° |
| 2026-05-04 15:59 | 41.11177 | 38.52665 | 37852 ft | 500 kts | 274° |
| 2026-05-04 16:00 | 41.11930 | 38.43523 | 37851 ft | 500 kts | 274° |
| 2026-05-04 16:00 | 41.12683 | 38.34351 | 37859 ft | 500 kts | 274° |
| 2026-05-04 16:01 | 41.13431 | 38.25236 | 37857 ft | 500 kts | 274° |
| 2026-05-04 16:01 | 41.14185 | 38.16057 | 37857 ft | 500 kts | 274° |
| 2026-05-04 16:02 | 41.14932 | 38.06894 | 37861 ft | 500 kts | 274° |
| 2026-05-04 16:03 | 41.16035 | 37.93103 | 37866 ft | 501 kts | 274° |
| 2026-05-04 16:03 | 41.16643 | 37.85475 | 37869 ft | 500 kts | 274° |
| 2026-05-04 16:04 | 41.17421 | 37.76274 | 37864 ft | 501 kts | 274° |
| 2026-05-04 16:04 | 41.18599 | 37.62466 | 37870 ft | 500 kts | 274° |
| 2026-05-04 16:05 | 41.19237 | 37.53273 | 37873 ft | 500 kts | 272° |
| 2026-05-04 16:06 | 41.20147 | 37.39535 | 37870 ft | 500 kts | 273° |
| 2026-05-04 16:07 | 41.21497 | 37.21168 | 37876 ft | 499 kts | 273° |
| 2026-05-04 16:08 | 41.22923 | 37.02828 | 37879 ft | 499 kts | 274° |
| 2026-05-04 16:09 | 41.24675 | 36.79882 | 37886 ft | 499 kts | 273° |
| 2026-05-04 16:10 | 41.26030 | 36.61551 | 37883 ft | 500 kts | 273° |
| 2026-05-04 16:11 | 41.28263 | 36.47974 | 37881 ft | 503 kts | 285° |
| 2026-05-04 16:11 | 41.29347 | 36.43570 | 37886 ft | 504 kts | 286° |
| 2026-05-04 16:12 | 41.36115 | 36.17137 | 37885 ft | 504 kts | 287° |
| 2026-05-04 16:13 | 41.40564 | 35.99429 | 37878 ft | 504 kts | 287° |
| 2026-05-04 16:14 | 41.44990 | 35.81675 | 37880 ft | 504 kts | 287° |
| 2026-05-04 16:16 | 41.50486 | 35.59458 | 37878 ft | 505 kts | 287° |
| 2026-05-04 16:17 | 41.55947 | 35.37178 | 37884 ft | 506 kts | 287° |
| 2026-05-04 16:18 | 41.60295 | 35.19278 | 37882 ft | 507 kts | 286° |
| 2026-05-04 16:19 | 41.65689 | 34.96875 | 37877 ft | 508 kts | 286° |
| 2026-05-04 16:20 | 41.71057 | 34.74350 | 37885 ft | 509 kts | 286° |
| 2026-05-04 16:22 | 41.76406 | 34.51701 | 37880 ft | 510 kts | 286° |
| 2026-05-04 16:23 | 41.82768 | 34.24450 | 37886 ft | 511 kts | 286° |
| 2026-05-04 16:25 | 41.89074 | 33.97115 | 37898 ft | 512 kts | 285° |
| 2026-05-04 16:26 | 41.96284 | 33.65194 | 37900 ft | 510 kts | 284° |
| 2026-05-04 16:28 | 42.00646 | 33.42101 | 37899 ft | 509 kts | 282° |
| 2026-05-04 16:29 | 42.06722 | 33.09794 | 37897 ft | 509 kts | 283° |
| 2026-05-04 16:31 | 42.11377 | 32.86780 | 37901 ft | 510 kts | 284° |
| 2026-05-04 16:32 | 42.17004 | 32.59133 | 37896 ft | 511 kts | 283° |
| 2026-05-04 16:33 | 42.20691 | 32.40628 | 37902 ft | 511 kts | 283° |
| 2026-05-04 16:34 | 42.23429 | 32.26773 | 37893 ft | 510 kts | 283° |
| 2026-05-04 16:35 | 42.28844 | 31.99116 | 37893 ft | 508 kts | 283° |
| 2026-05-04 16:36 | 42.31529 | 31.85301 | 37892 ft | 508 kts | 283° |
| 2026-05-04 16:37 | 42.34213 | 31.71417 | 37896 ft | 509 kts | 283° |
| 2026-05-04 16:38 | 42.37749 | 31.52921 | 37896 ft | 508 kts | 283° |
| 2026-05-04 16:39 | 42.42145 | 31.29736 | 37911 ft | 508 kts | 283° |
| 2026-05-04 16:40 | 42.45631 | 31.11206 | 37917 ft | 509 kts | 283° |
| 2026-05-04 16:41 | 42.49933 | 30.87980 | 37927 ft | 509 kts | 283° |
| 2026-05-04 16:43 | 42.54180 | 30.64735 | 37940 ft | 508 kts | 282° |
| 2026-05-04 16:43 | 42.56715 | 30.50760 | 37947 ft | 508 kts | 282° |
| 2026-05-04 16:45 | 42.63168 | 30.23597 | 37964 ft | 509 kts | 304° |
| 2026-05-04 16:46 | 42.74732 | 30.05408 | 37975 ft | 508 kts | 311° |
| 2026-05-04 16:47 | 42.84143 | 29.91105 | 37982 ft | 507 kts | 311° |
| 2026-05-04 16:48 | 42.93496 | 29.76729 | 37997 ft | 505 kts | 311° |
| 2026-05-04 16:49 | 43.02771 | 29.62340 | 38006 ft | 504 kts | 311° |
| 2026-05-04 16:50 | 43.11986 | 29.47980 | 38011 ft | 504 kts | 311° |
| 2026-05-04 16:51 | 43.18921 | 29.37127 | 38024 ft | 504 kts | 311° |
| 2026-05-04 16:52 | 43.28147 | 29.22623 | 38015 ft | 506 kts | 311° |
| 2026-05-04 16:53 | 43.35062 | 29.11703 | 38017 ft | 507 kts | 311° |
| 2026-05-04 16:54 | 43.44303 | 28.97044 | 38026 ft | 507 kts | 311° |
| 2026-05-04 16:55 | 43.57383 | 28.76170 | 38039 ft | 507 kts | 311° |
| 2026-05-04 16:56 | 43.68798 | 28.57669 | 38043 ft | 506 kts | 307° |
| 2026-05-04 16:57 | 43.74800 | 28.45707 | 38046 ft | 505 kts | 304° |
| 2026-05-04 16:58 | 43.82417 | 28.29476 | 38053 ft | 503 kts | 303° |
| 2026-05-04 17:00 | 43.93888 | 28.05098 | 38061 ft | 504 kts | 304° |
| 2026-05-04 17:01 | 44.03456 | 27.84656 | 38058 ft | 505 kts | 304° |
| 2026-05-04 17:02 | 44.11079 | 27.68259 | 38059 ft | 504 kts | 303° |
| 2026-05-04 17:03 | 44.16766 | 27.55954 | 38053 ft | 505 kts | 303° |
| 2026-05-04 17:03 | 44.22459 | 27.43597 | 38055 ft | 504 kts | 303° |
| 2026-05-04 17:04 | 44.29978 | 27.27197 | 38058 ft | 503 kts | 304° |
| 2026-05-04 17:05 | 44.37480 | 27.10741 | 38064 ft | 501 kts | 304° |
| 2026-05-04 17:06 | 44.43084 | 26.98379 | 38056 ft | 501 kts | 304° |
| 2026-05-04 17:07 | 44.48030 | 26.87376 | 38052 ft | 500 kts | 303° |
| 2026-05-04 17:07 | 44.52322 | 26.77796 | 38053 ft | 499 kts | 303° |
| 2026-05-04 17:08 | 44.57841 | 26.65480 | 38054 ft | 498 kts | 304° |
| 2026-05-04 17:09 | 44.61526 | 26.57236 | 38047 ft | 498 kts | 304° |
| 2026-05-04 17:09 | 44.65203 | 26.48985 | 38056 ft | 498 kts | 304° |
| 2026-05-04 17:10 | 44.74329 | 26.28398 | 38051 ft | 497 kts | 304° |
| 2026-05-04 17:11 | 44.77973 | 26.20135 | 38049 ft | 497 kts | 304° |
| 2026-05-04 17:12 | 44.83431 | 26.07716 | 38046 ft | 496 kts | 304° |
| 2026-05-04 17:13 | 44.92457 | 25.87059 | 38054 ft | 494 kts | 304° |
| 2026-05-04 17:14 | 44.99628 | 25.70539 | 38042 ft | 493 kts | 304° |
| 2026-05-04 17:15 | 45.04992 | 25.58119 | 38056 ft | 492 kts | 304° |
| 2026-05-04 17:16 | 45.12104 | 25.41567 | 38055 ft | 491 kts | 304° |
| 2026-05-04 17:17 | 45.19170 | 25.25026 | 38052 ft | 490 kts | 304° |
| 2026-05-04 17:18 | 45.26189 | 25.08498 | 38055 ft | 490 kts | 304° |
| 2026-05-04 17:19 | 45.33178 | 24.91944 | 38055 ft | 490 kts | 304° |
| 2026-05-04 17:20 | 45.40175 | 24.75275 | 38058 ft | 490 kts | 304° |
| 2026-05-04 17:20 | 45.45370 | 24.62830 | 38063 ft | 490 kts | 303° |
| 2026-05-04 17:21 | 45.52339 | 24.46046 | 38050 ft | 490 kts | 303° |
| 2026-05-04 17:22 | 45.55785 | 24.37715 | 38060 ft | 490 kts | 303° |
| 2026-05-04 17:23 | 45.62691 | 24.20945 | 38053 ft | 489 kts | 303° |
| 2026-05-04 17:24 | 45.67860 | 24.08415 | 38051 ft | 479 kts | 302° |
| 2026-05-04 17:25 | 45.74540 | 23.92079 | 38051 ft | 475 kts | 301° |
| 2026-05-04 17:26 | 45.81159 | 23.75686 | 38063 ft | 475 kts | 301° |
| 2026-05-04 17:27 | 45.89359 | 23.55186 | 38077 ft | 474 kts | 301° |
| 2026-05-04 17:28 | 45.95935 | 23.38726 | 38069 ft | 474 kts | 301° |
| 2026-05-04 17:29 | 46.05747 | 23.13988 | 38074 ft | 475 kts | 300° |
| 2026-05-04 17:31 | 46.13881 | 22.93308 | 38084 ft | 475 kts | 300° |
| 2026-05-04 17:32 | 46.21988 | 22.72541 | 38087 ft | 475 kts | 300° |
| 2026-05-04 17:33 | 46.28448 | 22.55879 | 38085 ft | 475 kts | 300° |
| 2026-05-04 17:34 | 46.34864 | 22.39232 | 38087 ft | 475 kts | 300° |
| 2026-05-04 17:35 | 46.42862 | 22.18334 | 38081 ft | 474 kts | 300° |
| 2026-05-04 17:36 | 46.46048 | 22.09964 | 38079 ft | 474 kts | 300° |
| 2026-05-04 17:36 | 46.49218 | 22.01609 | 38075 ft | 473 kts | 300° |
| 2026-05-04 17:37 | 46.52383 | 21.93242 | 38077 ft | 473 kts | 300° |
| 2026-05-04 17:37 | 46.55553 | 21.84836 | 38071 ft | 473 kts | 300° |
| 2026-05-04 17:38 | 46.58701 | 21.76463 | 38072 ft | 473 kts | 300° |
| 2026-05-04 17:38 | 46.61843 | 21.68081 | 38072 ft | 472 kts | 300° |
| 2026-05-04 17:39 | 46.66038 | 21.56848 | 38067 ft | 472 kts | 300° |
| 2026-05-04 17:39 | 46.69156 | 21.48470 | 38064 ft | 472 kts | 300° |
| 2026-05-04 17:40 | 46.72317 | 21.40095 | 38064 ft | 472 kts | 300° |
| 2026-05-04 17:40 | 46.75486 | 21.31680 | 38062 ft | 472 kts | 300° |
| 2026-05-04 17:41 | 46.78629 | 21.23289 | 38058 ft | 472 kts | 300° |
| 2026-05-04 17:41 | 46.81773 | 21.14858 | 38057 ft | 472 kts | 300° |
| 2026-05-04 17:42 | 46.84893 | 21.06466 | 37709 ft | 471 kts | 300° |
| 2026-05-04 17:42 | 46.86451 | 21.02262 | 37186 ft | 471 kts | 300° |
| 2026-05-04 17:42 | 46.88016 | 20.98035 | 36652 ft | 472 kts | 300° |
| 2026-05-04 17:43 | 46.89569 | 20.93835 | 36128 ft | 472 kts | 300° |
| 2026-05-04 17:43 | 46.91140 | 20.89580 | 35637 ft | 472 kts | 300° |
| 2026-05-04 17:43 | 46.92691 | 20.85374 | 35122 ft | 473 kts | 300° |
| 2026-05-04 17:43 | 46.94243 | 20.81158 | 34636 ft | 473 kts | 300° |
| 2026-05-04 17:44 | 46.95814 | 20.76886 | 34143 ft | 474 kts | 301° |
| 2026-05-04 17:44 | 46.97367 | 20.72662 | 33626 ft | 475 kts | 301° |
| 2026-05-04 17:44 | 46.98940 | 20.68392 | 33080 ft | 476 kts | 301° |
| 2026-05-04 17:44 | 47.00523 | 20.64085 | 32541 ft | 478 kts | 300° |
| 2026-05-04 17:45 | 47.02081 | 20.59831 | 32023 ft | 479 kts | 300° |
| 2026-05-04 17:45 | 47.03667 | 20.55488 | 31504 ft | 481 kts | 300° |
| 2026-05-04 17:45 | 47.05255 | 20.51128 | 31003 ft | 483 kts | 300° |
| 2026-05-04 17:45 | 47.06825 | 20.46806 | 30515 ft | 484 kts | 300° |
| 2026-05-04 17:46 | 47.08418 | 20.42414 | 30013 ft | 486 kts | 300° |
| 2026-05-04 17:46 | 47.10000 | 20.38047 | 29446 ft | 487 kts | 300° |
| 2026-05-04 17:46 | 47.11590 | 20.33646 | 28877 ft | 485 kts | 299° |
| 2026-05-04 17:46 | 47.13166 | 20.29277 | 28338 ft | 481 kts | 299° |
| 2026-05-04 17:47 | 47.14780 | 20.25043 | 27797 ft | 477 kts | 303° |
| 2026-05-04 17:47 | 47.16553 | 20.20976 | 27281 ft | 473 kts | 304° |
| 2026-05-04 17:47 | 47.18371 | 20.16940 | 26762 ft | 470 kts | 305° |
| 2026-05-04 17:47 | 47.20184 | 20.12948 | 26254 ft | 467 kts | 305° |
| 2026-05-04 17:48 | 47.21998 | 20.08952 | 25751 ft | 464 kts | 304° |
| 2026-05-04 17:48 | 47.23774 | 20.05037 | 25266 ft | 461 kts | 304° |
| 2026-05-04 17:48 | 47.25560 | 20.01096 | 24790 ft | 459 kts | 304° |
| 2026-05-04 17:48 | 47.27303 | 19.97244 | 24309 ft | 456 kts | 304° |
| 2026-05-04 17:49 | 47.29065 | 19.93342 | 23839 ft | 453 kts | 304° |
| 2026-05-04 17:49 | 47.30793 | 19.89509 | 23317 ft | 451 kts | 304° |
| 2026-05-04 17:49 | 47.32532 | 19.85648 | 22789 ft | 448 kts | 304° |
| 2026-05-04 17:49 | 47.33931 | 19.82537 | 22344 ft | 445 kts | 304° |
| 2026-05-04 17:50 | 47.35641 | 19.78726 | 21818 ft | 441 kts | 304° |
| 2026-05-04 17:50 | 47.37320 | 19.74984 | 21303 ft | 438 kts | 304° |
| 2026-05-04 17:50 | 47.39006 | 19.71223 | 20785 ft | 434 kts | 304° |
| 2026-05-04 17:50 | 47.40672 | 19.67499 | 20278 ft | 431 kts | 303° |
| 2026-05-04 17:51 | 47.42299 | 19.63859 | 19784 ft | 422 kts | 303° |
| 2026-05-04 17:51 | 47.43856 | 19.60369 | 19290 ft | 390 kts | 303° |
| 2026-05-04 17:51 | 47.45291 | 19.57142 | 18814 ft | 365 kts | 303° |
| 2026-05-04 17:51 | 47.46643 | 19.54089 | 18320 ft | 344 kts | 303° |
| 2026-05-04 17:52 | 47.47924 | 19.51187 | 17783 ft | 329 kts | 302° |
| 2026-05-04 17:52 | 47.49158 | 19.48392 | 17268 ft | 328 kts | 302° |
| 2026-05-04 17:52 | 47.50422 | 19.45570 | 16749 ft | 329 kts | 304° |
| 2026-05-04 17:52 | 47.52043 | 19.43192 | 16234 ft | 331 kts | 325° |
| 2026-05-04 17:53 | 47.54126 | 19.41856 | 15742 ft | 332 kts | 346° |
| 2026-05-04 17:53 | 47.56436 | 19.41733 | 15249 ft | 334 kts | 8° |
| 2026-05-04 17:53 | 47.58636 | 19.42878 | 14745 ft | 335 kts | 30° |
| 2026-05-04 17:53 | 47.60451 | 19.44999 | 14281 ft | 335 kts | 43° |
| 2026-05-04 17:54 | 47.62082 | 19.47412 | 13811 ft | 334 kts | 45° |
| 2026-05-04 17:54 | 47.63718 | 19.49895 | 13280 ft | 334 kts | 45° |
| 2026-05-04 17:54 | 47.65382 | 19.52310 | 12764 ft | 332 kts | 39° |
| 2026-05-04 17:54 | 47.67361 | 19.53946 | 12256 ft | 330 kts | 18° |
| 2026-05-04 17:55 | 47.69621 | 19.54409 | 11758 ft | 327 kts | 356° |
| 2026-05-04 17:55 | 47.71815 | 19.53609 | 11257 ft | 323 kts | 334° |
| 2026-05-04 17:55 | 47.73628 | 19.51743 | 10789 ft | 319 kts | 315° |
| 2026-05-04 17:55 | 47.75180 | 19.49389 | 10301 ft | 317 kts | 311° |
| 2026-05-04 17:56 | 47.76662 | 19.47006 | 9824 ft | 315 kts | 311° |
| 2026-05-04 17:56 | 47.78152 | 19.44594 | 9303 ft | 314 kts | 310° |
| 2026-05-04 17:56 | 47.79553 | 19.42102 | 8770 ft | 310 kts | 301° |
| 2026-05-04 17:56 | 47.80316 | 19.39193 | 8291 ft | 304 kts | 278° |
| 2026-05-04 17:57 | 47.80258 | 19.36083 | 7776 ft | 299 kts | 256° |
| 2026-05-04 17:57 | 47.79593 | 19.33173 | 7295 ft | 296 kts | 247° |
| 2026-05-04 17:57 | 47.78786 | 19.30354 | 6817 ft | 294 kts | 246° |
| 2026-05-04 17:57 | 47.77992 | 19.27646 | 6330 ft | 279 kts | 245° |
| 2026-05-04 17:58 | 47.77251 | 19.25095 | 6028 ft | 257 kts | 245° |
| 2026-05-04 17:58 | 47.76563 | 19.22697 | 5984 ft | 248 kts | 245° |
| 2026-05-04 17:58 | 47.75893 | 19.20356 | 5986 ft | 246 kts | 245° |
| 2026-05-04 17:58 | 47.75225 | 19.18023 | 5988 ft | 246 kts | 245° |
| 2026-05-04 17:59 | 47.74556 | 19.15681 | 5987 ft | 246 kts | 245° |
| 2026-05-04 17:59 | 47.73887 | 19.13336 | 5987 ft | 246 kts | 245° |
| 2026-05-04 17:59 | 47.72556 | 19.08661 | 5506 ft | 245 kts | 245° |
| 2026-05-04 18:00 | 47.71909 | 19.06329 | 5252 ft | 243 kts | 246° |
| 2026-05-04 18:00 | 47.71271 | 19.04004 | 5009 ft | 242 kts | 246° |
| 2026-05-04 18:00 | 47.70643 | 19.01690 | 4768 ft | 239 kts | 246° |
| 2026-05-04 18:00 | 47.70052 | 18.99477 | 4504 ft | 228 kts | 246° |
| 2026-05-04 18:01 | 47.69486 | 18.97333 | 4228 ft | 218 kts | 245° |
| 2026-05-04 18:01 | 47.68943 | 18.95233 | 4033 ft | 217 kts | 246° |
| 2026-05-04 18:01 | 47.68399 | 18.93140 | 3990 ft | 216 kts | 245° |
| 2026-05-04 18:02 | 47.66650 | 18.89842 | 3980 ft | 207 kts | 196° |
| 2026-05-04 18:02 | 47.65232 | 18.89976 | 3980 ft | 210 kts | 159° |
| 2026-05-04 18:02 | 47.63992 | 18.91169 | 3991 ft | 215 kts | 143° |
| 2026-05-04 18:02 | 47.62913 | 18.92746 | 3987 ft | 219 kts | 136° |
| 2026-05-04 18:03 | 47.61907 | 18.94398 | 3991 ft | 218 kts | 135° |
| 2026-05-04 18:03 | 47.60892 | 18.96078 | 3991 ft | 217 kts | 135° |
| 2026-05-04 18:03 | 47.59890 | 18.97739 | 3988 ft | 218 kts | 135° |
| 2026-05-04 18:03 | 47.58870 | 18.99418 | 3986 ft | 218 kts | 135° |
| 2026-05-04 18:04 | 47.57858 | 19.01070 | 3998 ft | 218 kts | 135° |
| 2026-05-04 18:04 | 47.56830 | 19.02728 | 3915 ft | 218 kts | 136° |
| 2026-05-04 18:04 | 47.54778 | 19.06025 | 3361 ft | 218 kts | 135° |
| 2026-05-04 18:05 | 47.53776 | 19.07661 | 3051 ft | 213 kts | 135° |
| 2026-05-04 18:05 | 47.52766 | 19.09298 | 2759 ft | 214 kts | 135° |
| 2026-05-04 18:05 | 47.51788 | 19.10886 | 2488 ft | 202 kts | 135° |
| 2026-05-04 18:05 | 47.50896 | 19.12335 | 2231 ft | 181 kts | 135° |
| 2026-05-04 18:06 | 47.49390 | 19.14771 | 1803 ft | 143 kts | 136° |
| 2026-05-04 18:06 | 47.48745 | 19.15810 | 1614 ft | 132 kts | 137° |
| 2026-05-04 18:06 | 47.48132 | 19.16798 | 1445 ft | 130 kts | 137° |
| 2026-05-04 18:07 | 47.47521 | 19.17784 | 1285 ft | 131 kts | 136° |
| 2026-05-04 18:07 | 47.46919 | 19.18793 | 1078 ft | 131 kts | 135° |
| 2026-05-04 18:07 | 47.46295 | 19.19797 | 902 ft | 134 kts | 133° |
| 2026-05-04 18:07 | 47.45680 | 19.20804 | 682 ft | 129 kts | 136° |
| 2026-05-04 18:08 | 47.45066 | 19.21778 | 549 ft | 131 kts | 134° |
| 2026-05-04 18:08 | 47.44447 | 19.22778 | 467 ft | 129 kts | 135° |
| 2026-05-04 18:08 | 47.43908 | 19.23631 | 469 ft | 97 kts | 131° |
| 2026-05-04 18:08 | 47.43518 | 19.24261 | 467 ft | 65 kts | 132° |
| 2026-05-04 18:09 | 47.43183 | 19.24801 | 469 ft | 21 kts | 132° |
| 2026-05-04 18:09 | 47.43102 | 19.25008 | 470 ft | 5 kts | 89° |
| 2026-05-04 18:10 | 47.43104 | 19.25029 | 470 ft | 0 kts | 78° |
| 2026-05-04 18:10 | 47.43116 | 19.25068 | 470 ft | 12 kts | 59° |
| 2026-05-04 18:10 | 47.43158 | 19.25135 | 471 ft | 0 kts | 43° |
| 2026-05-04 18:11 | 47.43158 | 19.25136 | 471 ft | 0 kts | 43° |
| 2026-05-04 18:12 | 47.43177 | 19.25161 | 472 ft | 11 kts | 43° |
| 2026-05-04 18:13 | 47.43264 | 19.25280 | 472 ft | 19 kts | 42° |
| 2026-05-04 18:13 | 47.43337 | 19.25415 | 471 ft | 15 kts | 88° |
| 2026-05-04 18:13 | 47.43191 | 19.25674 | 468 ft | 18 kts | 132° |
| 2026-05-04 18:14 | 47.43150 | 19.25741 | 471 ft | 1 kts | 132° |
| 2026-05-04 18:14 | 47.43135 | 19.25778 | 471 ft | 6 kts | 108° |
| 2026-05-04 18:14 | 47.43153 | 19.25816 | 467 ft | 5 kts | 44° |
| 2026-05-04 18:15 | 47.43183 | 19.25859 | 472 ft | 0 kts | 43° |